<?xml version="1.0" encoding="UTF-8" standalone="no" ?>
<gpx xmlns="http://www.topografix.com/GPX/1/1" xmlns:xsi="http://www.w3.org/2001/XMLSchema-instance" xsi:schemaLocation="http://www.topografix.com/GPX/1/1 http://www.topografix.com/GPX/1/1/gpx.xsd" version="1.1" creator="VisuGPX - https://www.visugpx.com">
  <metadata>
    <name>Autour de Cuzorn</name>
    <desc><![CDATA[Une boucle assez physique sans vraiment de portions roulantes.]]></desc>
  </metadata>
  <trk>
    <name><![CDATA[09-DEC-12 12:20:04]]></name>
    <trkseg>
      <trkpt lat="44.5453" lon="0.9487">
        <ele>94.35</ele>
        <time>2012-12-09T07:59:03Z</time>
      </trkpt>
      <trkpt lat="44.54529" lon="0.94871">
        <ele>93.39</ele>
        <time>2012-12-09T07:59:30Z</time>
      </trkpt>
      <trkpt lat="44.54529" lon="0.9487">
        <ele>92.9</ele>
        <time>2012-12-09T07:59:59Z</time>
      </trkpt>
      <trkpt lat="44.54527" lon="0.94868">
        <ele>92.42</ele>
        <time>2012-12-09T08:00:24Z</time>
      </trkpt>
      <trkpt lat="44.54527" lon="0.94866">
        <ele>91.94</ele>
        <time>2012-12-09T08:00:45Z</time>
      </trkpt>
      <trkpt lat="44.54525" lon="0.94866">
        <ele>92.9</ele>
        <time>2012-12-09T08:01:14Z</time>
      </trkpt>
      <trkpt lat="44.54525" lon="0.94867">
        <ele>92.42</ele>
        <time>2012-12-09T08:01:27Z</time>
      </trkpt>
      <trkpt lat="44.54525" lon="0.94867">
        <ele>91.94</ele>
        <time>2012-12-09T08:01:42Z</time>
      </trkpt>
      <trkpt lat="44.54526" lon="0.94865">
        <ele>89.54</ele>
        <time>2012-12-09T08:02:03Z</time>
      </trkpt>
      <trkpt lat="44.54527" lon="0.94866">
        <ele>90.98</ele>
        <time>2012-12-09T08:02:19Z</time>
      </trkpt>
      <trkpt lat="44.54526" lon="0.94867">
        <ele>91.46</ele>
        <time>2012-12-09T08:02:33Z</time>
      </trkpt>
      <trkpt lat="44.54526" lon="0.94866">
        <ele>91.94</ele>
        <time>2012-12-09T08:02:50Z</time>
      </trkpt>
      <trkpt lat="44.54526" lon="0.94867">
        <ele>91.94</ele>
        <time>2012-12-09T08:03:10Z</time>
      </trkpt>
      <trkpt lat="44.54525" lon="0.94866">
        <ele>92.9</ele>
        <time>2012-12-09T08:03:20Z</time>
      </trkpt>
      <trkpt lat="44.54541" lon="0.94864">
        <ele>93.87</ele>
        <time>2012-12-09T08:03:30Z</time>
      </trkpt>
      <trkpt lat="44.54549" lon="0.94875">
        <ele>93.87</ele>
        <time>2012-12-09T08:03:35Z</time>
      </trkpt>
      <trkpt lat="44.54529" lon="0.94916">
        <ele>93.39</ele>
        <time>2012-12-09T08:03:48Z</time>
      </trkpt>
      <trkpt lat="44.54535" lon="0.94934">
        <ele>93.39</ele>
        <time>2012-12-09T08:03:54Z</time>
      </trkpt>
      <trkpt lat="44.54569" lon="0.9495">
        <ele>91.94</ele>
        <time>2012-12-09T08:04:05Z</time>
      </trkpt>
      <trkpt lat="44.54591" lon="0.94965">
        <ele>91.46</ele>
        <time>2012-12-09T08:04:15Z</time>
      </trkpt>
      <trkpt lat="44.54594" lon="0.94959">
        <ele>94.83</ele>
        <time>2012-12-09T08:04:21Z</time>
      </trkpt>
      <trkpt lat="44.54599" lon="0.94961">
        <ele>94.83</ele>
        <time>2012-12-09T08:04:26Z</time>
      </trkpt>
      <trkpt lat="44.54603" lon="0.94974">
        <ele>94.83</ele>
        <time>2012-12-09T08:04:34Z</time>
      </trkpt>
      <trkpt lat="44.54599" lon="0.94981">
        <ele>94.83</ele>
        <time>2012-12-09T08:04:39Z</time>
      </trkpt>
      <trkpt lat="44.54598" lon="0.94993">
        <ele>94.35</ele>
        <time>2012-12-09T08:04:44Z</time>
      </trkpt>
      <trkpt lat="44.54622" lon="0.94995">
        <ele>95.31</ele>
        <time>2012-12-09T08:04:56Z</time>
      </trkpt>
      <trkpt lat="44.54653" lon="0.94986">
        <ele>97.23</ele>
        <time>2012-12-09T08:05:08Z</time>
      </trkpt>
      <trkpt lat="44.5469" lon="0.94989">
        <ele>98.67</ele>
        <time>2012-12-09T08:05:20Z</time>
      </trkpt>
      <trkpt lat="44.54729" lon="0.94983">
        <ele>101.56</ele>
        <time>2012-12-09T08:05:34Z</time>
      </trkpt>
      <trkpt lat="44.54764" lon="0.94973">
        <ele>103.48</ele>
        <time>2012-12-09T08:05:49Z</time>
      </trkpt>
      <trkpt lat="44.54786" lon="0.94973">
        <ele>106.36</ele>
        <time>2012-12-09T08:06:00Z</time>
      </trkpt>
      <trkpt lat="44.54812" lon="0.94977">
        <ele>109.25</ele>
        <time>2012-12-09T08:06:13Z</time>
      </trkpt>
      <trkpt lat="44.54836" lon="0.94981">
        <ele>111.65</ele>
        <time>2012-12-09T08:06:27Z</time>
      </trkpt>
      <trkpt lat="44.5485" lon="0.94984">
        <ele>113.09</ele>
        <time>2012-12-09T08:06:35Z</time>
      </trkpt>
      <trkpt lat="44.54858" lon="0.94988">
        <ele>113.57</ele>
        <time>2012-12-09T08:06:40Z</time>
      </trkpt>
      <trkpt lat="44.54885" lon="0.94999">
        <ele>117.9</ele>
        <time>2012-12-09T08:06:55Z</time>
      </trkpt>
      <trkpt lat="44.54911" lon="0.95013">
        <ele>121.26</ele>
        <time>2012-12-09T08:07:10Z</time>
      </trkpt>
      <trkpt lat="44.54942" lon="0.95025">
        <ele>126.07</ele>
        <time>2012-12-09T08:07:26Z</time>
      </trkpt>
      <trkpt lat="44.5497" lon="0.95033">
        <ele>125.59</ele>
        <time>2012-12-09T08:07:38Z</time>
      </trkpt>
      <trkpt lat="44.54976" lon="0.95037">
        <ele>125.59</ele>
        <time>2012-12-09T08:07:42Z</time>
      </trkpt>
      <trkpt lat="44.54981" lon="0.95039">
        <ele>124.63</ele>
        <time>2012-12-09T08:07:58Z</time>
      </trkpt>
      <trkpt lat="44.5498" lon="0.95039">
        <ele>123.67</ele>
        <time>2012-12-09T08:08:20Z</time>
      </trkpt>
      <trkpt lat="44.54981" lon="0.95041">
        <ele>122.22</ele>
        <time>2012-12-09T08:08:43Z</time>
      </trkpt>
      <trkpt lat="44.54982" lon="0.95041">
        <ele>121.26</ele>
        <time>2012-12-09T08:08:55Z</time>
      </trkpt>
      <trkpt lat="44.54989" lon="0.95041">
        <ele>120.78</ele>
        <time>2012-12-09T08:08:59Z</time>
      </trkpt>
      <trkpt lat="44.55022" lon="0.95044">
        <ele>119.34</ele>
        <time>2012-12-09T08:09:12Z</time>
      </trkpt>
      <trkpt lat="44.55053" lon="0.95041">
        <ele>117.9</ele>
        <time>2012-12-09T08:09:20Z</time>
      </trkpt>
      <trkpt lat="44.55105" lon="0.95025">
        <ele>115.98</ele>
        <time>2012-12-09T08:09:29Z</time>
      </trkpt>
      <trkpt lat="44.55136" lon="0.95022">
        <ele>115.01</ele>
        <time>2012-12-09T08:09:33Z</time>
      </trkpt>
      <trkpt lat="44.55237" lon="0.95036">
        <ele>108.77</ele>
        <time>2012-12-09T08:09:44Z</time>
      </trkpt>
      <trkpt lat="44.55279" lon="0.95025">
        <ele>103.96</ele>
        <time>2012-12-09T08:09:48Z</time>
      </trkpt>
      <trkpt lat="44.55327" lon="0.95006">
        <ele>100.6</ele>
        <time>2012-12-09T08:09:54Z</time>
      </trkpt>
      <trkpt lat="44.55343" lon="0.94991">
        <ele>101.08</ele>
        <time>2012-12-09T08:09:58Z</time>
      </trkpt>
      <trkpt lat="44.55351" lon="0.94979">
        <ele>101.08</ele>
        <time>2012-12-09T08:10:01Z</time>
      </trkpt>
      <trkpt lat="44.55365" lon="0.94968">
        <ele>101.08</ele>
        <time>2012-12-09T08:10:05Z</time>
      </trkpt>
      <trkpt lat="44.55377" lon="0.94963">
        <ele>100.6</ele>
        <time>2012-12-09T08:10:08Z</time>
      </trkpt>
      <trkpt lat="44.55384" lon="0.94958">
        <ele>100.11</ele>
        <time>2012-12-09T08:10:10Z</time>
      </trkpt>
      <trkpt lat="44.55419" lon="0.94956">
        <ele>101.08</ele>
        <time>2012-12-09T08:10:19Z</time>
      </trkpt>
      <trkpt lat="44.55492" lon="0.94979">
        <ele>103.48</ele>
        <time>2012-12-09T08:10:39Z</time>
      </trkpt>
      <trkpt lat="44.55535" lon="0.94993">
        <ele>104.44</ele>
        <time>2012-12-09T08:10:50Z</time>
      </trkpt>
      <trkpt lat="44.55584" lon="0.95054">
        <ele>105.88</ele>
        <time>2012-12-09T08:11:06Z</time>
      </trkpt>
      <trkpt lat="44.5561" lon="0.95094">
        <ele>107.81</ele>
        <time>2012-12-09T08:11:15Z</time>
      </trkpt>
      <trkpt lat="44.55675" lon="0.95166">
        <ele>111.17</ele>
        <time>2012-12-09T08:11:35Z</time>
      </trkpt>
      <trkpt lat="44.55738" lon="0.95222">
        <ele>114.53</ele>
        <time>2012-12-09T08:11:55Z</time>
      </trkpt>
      <trkpt lat="44.55797" lon="0.95277">
        <ele>117.42</ele>
        <time>2012-12-09T08:12:15Z</time>
      </trkpt>
      <trkpt lat="44.5584" lon="0.95333">
        <ele>119.82</ele>
        <time>2012-12-09T08:12:31Z</time>
      </trkpt>
      <trkpt lat="44.55889" lon="0.95403">
        <ele>119.82</ele>
        <time>2012-12-09T08:12:48Z</time>
      </trkpt>
      <trkpt lat="44.55948" lon="0.95473">
        <ele>115.5</ele>
        <time>2012-12-09T08:13:02Z</time>
      </trkpt>
      <trkpt lat="44.55965" lon="0.9549">
        <ele>114.53</ele>
        <time>2012-12-09T08:13:05Z</time>
      </trkpt>
      <trkpt lat="44.55989" lon="0.955">
        <ele>113.57</ele>
        <time>2012-12-09T08:13:09Z</time>
      </trkpt>
      <trkpt lat="44.56014" lon="0.95495">
        <ele>112.61</ele>
        <time>2012-12-09T08:13:13Z</time>
      </trkpt>
      <trkpt lat="44.56026" lon="0.95493">
        <ele>112.13</ele>
        <time>2012-12-09T08:13:15Z</time>
      </trkpt>
      <trkpt lat="44.56058" lon="0.95498">
        <ele>110.21</ele>
        <time>2012-12-09T08:13:20Z</time>
      </trkpt>
      <trkpt lat="44.56127" lon="0.95535">
        <ele>110.21</ele>
        <time>2012-12-09T08:13:33Z</time>
      </trkpt>
      <trkpt lat="44.56157" lon="0.95545">
        <ele>111.65</ele>
        <time>2012-12-09T08:13:41Z</time>
      </trkpt>
      <trkpt lat="44.56161" lon="0.95564">
        <ele>112.61</ele>
        <time>2012-12-09T08:13:46Z</time>
      </trkpt>
      <trkpt lat="44.56136" lon="0.95631">
        <ele>115.5</ele>
        <time>2012-12-09T08:14:03Z</time>
      </trkpt>
      <trkpt lat="44.56114" lon="0.95693">
        <ele>118.38</ele>
        <time>2012-12-09T08:14:20Z</time>
      </trkpt>
      <trkpt lat="44.56088" lon="0.95761">
        <ele>125.11</ele>
        <time>2012-12-09T08:14:40Z</time>
      </trkpt>
      <trkpt lat="44.56059" lon="0.958">
        <ele>131.36</ele>
        <time>2012-12-09T08:14:56Z</time>
      </trkpt>
      <trkpt lat="44.56034" lon="0.95833">
        <ele>135.68</ele>
        <time>2012-12-09T08:15:12Z</time>
      </trkpt>
      <trkpt lat="44.56005" lon="0.95861">
        <ele>139.53</ele>
        <time>2012-12-09T08:15:29Z</time>
      </trkpt>
      <trkpt lat="44.5597" lon="0.95876">
        <ele>142.41</ele>
        <time>2012-12-09T08:15:47Z</time>
      </trkpt>
      <trkpt lat="44.55943" lon="0.95882">
        <ele>144.34</ele>
        <time>2012-12-09T08:16:02Z</time>
      </trkpt>
      <trkpt lat="44.5591" lon="0.95896">
        <ele>145.3</ele>
        <time>2012-12-09T08:16:20Z</time>
      </trkpt>
      <trkpt lat="44.55884" lon="0.95913">
        <ele>146.74</ele>
        <time>2012-12-09T08:16:35Z</time>
      </trkpt>
      <trkpt lat="44.5587" lon="0.95934">
        <ele>148.66</ele>
        <time>2012-12-09T08:16:48Z</time>
      </trkpt>
      <trkpt lat="44.55869" lon="0.95936">
        <ele>148.66</ele>
        <time>2012-12-09T08:16:49Z</time>
      </trkpt>
      <trkpt lat="44.55862" lon="0.95946">
        <ele>150.1</ele>
        <time>2012-12-09T08:16:56Z</time>
      </trkpt>
      <trkpt lat="44.55853" lon="0.95956">
        <ele>152.51</ele>
        <time>2012-12-09T08:17:07Z</time>
      </trkpt>
      <trkpt lat="44.55849" lon="0.95961">
        <ele>152.99</ele>
        <time>2012-12-09T08:17:11Z</time>
      </trkpt>
      <trkpt lat="44.55844" lon="0.95972">
        <ele>153.47</ele>
        <time>2012-12-09T08:17:19Z</time>
      </trkpt>
      <trkpt lat="44.55838" lon="0.96009">
        <ele>156.83</ele>
        <time>2012-12-09T08:17:36Z</time>
      </trkpt>
      <trkpt lat="44.55837" lon="0.9602">
        <ele>157.79</ele>
        <time>2012-12-09T08:17:41Z</time>
      </trkpt>
      <trkpt lat="44.55834" lon="0.96056">
        <ele>159.72</ele>
        <time>2012-12-09T08:17:57Z</time>
      </trkpt>
      <trkpt lat="44.55823" lon="0.96096">
        <ele>161.64</ele>
        <time>2012-12-09T08:18:15Z</time>
      </trkpt>
      <trkpt lat="44.55795" lon="0.96125">
        <ele>161.64</ele>
        <time>2012-12-09T08:18:33Z</time>
      </trkpt>
      <trkpt lat="44.55775" lon="0.96161">
        <ele>164.04</ele>
        <time>2012-12-09T08:18:49Z</time>
      </trkpt>
      <trkpt lat="44.55769" lon="0.96176">
        <ele>165.48</ele>
        <time>2012-12-09T08:18:55Z</time>
      </trkpt>
      <trkpt lat="44.55754" lon="0.96212">
        <ele>169.81</ele>
        <time>2012-12-09T08:19:10Z</time>
      </trkpt>
      <trkpt lat="44.55752" lon="0.96248">
        <ele>174.14</ele>
        <time>2012-12-09T08:19:24Z</time>
      </trkpt>
      <trkpt lat="44.5574" lon="0.96281">
        <ele>177.5</ele>
        <time>2012-12-09T08:19:36Z</time>
      </trkpt>
      <trkpt lat="44.55724" lon="0.96315">
        <ele>180.38</ele>
        <time>2012-12-09T08:19:49Z</time>
      </trkpt>
      <trkpt lat="44.55714" lon="0.96313">
        <ele>180.38</ele>
        <time>2012-12-09T08:20:00Z</time>
      </trkpt>
      <trkpt lat="44.55715" lon="0.96314">
        <ele>180.38</ele>
        <time>2012-12-09T08:20:18Z</time>
      </trkpt>
      <trkpt lat="44.55714" lon="0.96314">
        <ele>181.35</ele>
        <time>2012-12-09T08:20:35Z</time>
      </trkpt>
      <trkpt lat="44.55714" lon="0.96313">
        <ele>181.35</ele>
        <time>2012-12-09T08:20:59Z</time>
      </trkpt>
      <trkpt lat="44.55715" lon="0.96314">
        <ele>180.87</ele>
        <time>2012-12-09T08:21:20Z</time>
      </trkpt>
      <trkpt lat="44.55696" lon="0.96309">
        <ele>179.9</ele>
        <time>2012-12-09T08:21:32Z</time>
      </trkpt>
      <trkpt lat="44.55654" lon="0.96292">
        <ele>179.9</ele>
        <time>2012-12-09T08:21:43Z</time>
      </trkpt>
      <trkpt lat="44.55605" lon="0.96285">
        <ele>177.98</ele>
        <time>2012-12-09T08:21:52Z</time>
      </trkpt>
      <trkpt lat="44.55574" lon="0.96273">
        <ele>177.02</ele>
        <time>2012-12-09T08:21:58Z</time>
      </trkpt>
      <trkpt lat="44.55544" lon="0.96229">
        <ele>175.58</ele>
        <time>2012-12-09T08:22:09Z</time>
      </trkpt>
      <trkpt lat="44.55524" lon="0.96231">
        <ele>173.66</ele>
        <time>2012-12-09T08:22:17Z</time>
      </trkpt>
      <trkpt lat="44.55514" lon="0.96242">
        <ele>173.17</ele>
        <time>2012-12-09T08:22:22Z</time>
      </trkpt>
      <trkpt lat="44.55497" lon="0.96266">
        <ele>171.73</ele>
        <time>2012-12-09T08:22:27Z</time>
      </trkpt>
      <trkpt lat="44.55486" lon="0.96279">
        <ele>170.77</ele>
        <time>2012-12-09T08:22:30Z</time>
      </trkpt>
      <trkpt lat="44.55468" lon="0.96314">
        <ele>166.93</ele>
        <time>2012-12-09T08:22:38Z</time>
      </trkpt>
      <trkpt lat="44.55468" lon="0.96359">
        <ele>161.64</ele>
        <time>2012-12-09T08:22:43Z</time>
      </trkpt>
      <trkpt lat="44.55481" lon="0.96401">
        <ele>156.35</ele>
        <time>2012-12-09T08:22:48Z</time>
      </trkpt>
      <trkpt lat="44.55478" lon="0.96425">
        <ele>153.47</ele>
        <time>2012-12-09T08:22:52Z</time>
      </trkpt>
      <trkpt lat="44.55442" lon="0.9647">
        <ele>150.1</ele>
        <time>2012-12-09T08:23:04Z</time>
      </trkpt>
      <trkpt lat="44.55423" lon="0.96506">
        <ele>146.74</ele>
        <time>2012-12-09T08:23:14Z</time>
      </trkpt>
      <trkpt lat="44.55424" lon="0.96559">
        <ele>143.37</ele>
        <time>2012-12-09T08:23:24Z</time>
      </trkpt>
      <trkpt lat="44.55423" lon="0.96573">
        <ele>142.41</ele>
        <time>2012-12-09T08:23:27Z</time>
      </trkpt>
      <trkpt lat="44.55434" lon="0.96603">
        <ele>141.45</ele>
        <time>2012-12-09T08:23:32Z</time>
      </trkpt>
      <trkpt lat="44.55454" lon="0.96631">
        <ele>140.49</ele>
        <time>2012-12-09T08:23:38Z</time>
      </trkpt>
      <trkpt lat="44.55459" lon="0.96641">
        <ele>140.49</ele>
        <time>2012-12-09T08:23:40Z</time>
      </trkpt>
      <trkpt lat="44.55471" lon="0.96655">
        <ele>139.53</ele>
        <time>2012-12-09T08:23:44Z</time>
      </trkpt>
      <trkpt lat="44.55496" lon="0.9666">
        <ele>137.13</ele>
        <time>2012-12-09T08:23:50Z</time>
      </trkpt>
      <trkpt lat="44.55498" lon="0.96663">
        <ele>135.68</ele>
        <time>2012-12-09T08:24:00Z</time>
      </trkpt>
      <trkpt lat="44.55496" lon="0.96665">
        <ele>140.01</ele>
        <time>2012-12-09T08:24:14Z</time>
      </trkpt>
      <trkpt lat="44.55465" lon="0.96673">
        <ele>138.09</ele>
        <time>2012-12-09T08:24:25Z</time>
      </trkpt>
      <trkpt lat="44.55461" lon="0.96672">
        <ele>138.09</ele>
        <time>2012-12-09T08:24:26Z</time>
      </trkpt>
      <trkpt lat="44.55444" lon="0.96665">
        <ele>137.61</ele>
        <time>2012-12-09T08:24:30Z</time>
      </trkpt>
      <trkpt lat="44.55424" lon="0.96668">
        <ele>136.64</ele>
        <time>2012-12-09T08:24:35Z</time>
      </trkpt>
      <trkpt lat="44.55416" lon="0.9667">
        <ele>136.64</ele>
        <time>2012-12-09T08:24:37Z</time>
      </trkpt>
      <trkpt lat="44.55379" lon="0.9668">
        <ele>133.76</ele>
        <time>2012-12-09T08:24:47Z</time>
      </trkpt>
      <trkpt lat="44.55367" lon="0.96684">
        <ele>133.28</ele>
        <time>2012-12-09T08:24:50Z</time>
      </trkpt>
      <trkpt lat="44.55339" lon="0.96694">
        <ele>131.36</ele>
        <time>2012-12-09T08:24:59Z</time>
      </trkpt>
      <trkpt lat="44.55342" lon="0.96705">
        <ele>130.88</ele>
        <time>2012-12-09T08:25:02Z</time>
      </trkpt>
      <trkpt lat="44.55347" lon="0.96716">
        <ele>130.88</ele>
        <time>2012-12-09T08:25:06Z</time>
      </trkpt>
      <trkpt lat="44.55326" lon="0.96736">
        <ele>134.24</ele>
        <time>2012-12-09T08:25:16Z</time>
      </trkpt>
      <trkpt lat="44.55307" lon="0.96786">
        <ele>136.16</ele>
        <time>2012-12-09T08:25:29Z</time>
      </trkpt>
      <trkpt lat="44.55297" lon="0.96815">
        <ele>135.2</ele>
        <time>2012-12-09T08:25:35Z</time>
      </trkpt>
      <trkpt lat="44.55292" lon="0.96824">
        <ele>134.72</ele>
        <time>2012-12-09T08:25:37Z</time>
      </trkpt>
      <trkpt lat="44.55271" lon="0.96844">
        <ele>134.24</ele>
        <time>2012-12-09T08:25:42Z</time>
      </trkpt>
      <trkpt lat="44.55257" lon="0.96861">
        <ele>134.24</ele>
        <time>2012-12-09T08:25:46Z</time>
      </trkpt>
      <trkpt lat="44.55224" lon="0.96901">
        <ele>132.8</ele>
        <time>2012-12-09T08:25:55Z</time>
      </trkpt>
      <trkpt lat="44.55208" lon="0.96932">
        <ele>131.84</ele>
        <time>2012-12-09T08:26:01Z</time>
      </trkpt>
      <trkpt lat="44.55205" lon="0.96977">
        <ele>128.95</ele>
        <time>2012-12-09T08:26:08Z</time>
      </trkpt>
      <trkpt lat="44.55207" lon="0.9699">
        <ele>128.47</ele>
        <time>2012-12-09T08:26:10Z</time>
      </trkpt>
      <trkpt lat="44.55208" lon="0.97004">
        <ele>128.47</ele>
        <time>2012-12-09T08:26:12Z</time>
      </trkpt>
      <trkpt lat="44.55218" lon="0.97041">
        <ele>127.99</ele>
        <time>2012-12-09T08:26:19Z</time>
      </trkpt>
      <trkpt lat="44.55226" lon="0.97055">
        <ele>127.99</ele>
        <time>2012-12-09T08:26:22Z</time>
      </trkpt>
      <trkpt lat="44.55216" lon="0.97078">
        <ele>124.15</ele>
        <time>2012-12-09T08:26:31Z</time>
      </trkpt>
      <trkpt lat="44.55199" lon="0.97088">
        <ele>125.59</ele>
        <time>2012-12-09T08:26:37Z</time>
      </trkpt>
      <trkpt lat="44.55177" lon="0.97115">
        <ele>125.11</ele>
        <time>2012-12-09T08:26:48Z</time>
      </trkpt>
      <trkpt lat="44.55158" lon="0.97167">
        <ele>126.07</ele>
        <time>2012-12-09T08:27:00Z</time>
      </trkpt>
      <trkpt lat="44.55154" lon="0.97218">
        <ele>127.99</ele>
        <time>2012-12-09T08:27:11Z</time>
      </trkpt>
      <trkpt lat="44.55152" lon="0.97263">
        <ele>128.47</ele>
        <time>2012-12-09T08:27:23Z</time>
      </trkpt>
      <trkpt lat="44.55153" lon="0.97298">
        <ele>129.43</ele>
        <time>2012-12-09T08:27:32Z</time>
      </trkpt>
      <trkpt lat="44.55155" lon="0.9734">
        <ele>131.36</ele>
        <time>2012-12-09T08:27:43Z</time>
      </trkpt>
      <trkpt lat="44.55149" lon="0.97398">
        <ele>132.8</ele>
        <time>2012-12-09T08:27:56Z</time>
      </trkpt>
      <trkpt lat="44.55149" lon="0.97401">
        <ele>133.28</ele>
        <time>2012-12-09T08:27:57Z</time>
      </trkpt>
      <trkpt lat="44.55144" lon="0.97435">
        <ele>136.16</ele>
        <time>2012-12-09T08:28:09Z</time>
      </trkpt>
      <trkpt lat="44.55135" lon="0.97476">
        <ele>140.01</ele>
        <time>2012-12-09T08:28:22Z</time>
      </trkpt>
      <trkpt lat="44.55133" lon="0.97489">
        <ele>140.97</ele>
        <time>2012-12-09T08:28:27Z</time>
      </trkpt>
      <trkpt lat="44.55154" lon="0.97529">
        <ele>145.3</ele>
        <time>2012-12-09T08:28:39Z</time>
      </trkpt>
      <trkpt lat="44.55157" lon="0.97554">
        <ele>145.78</ele>
        <time>2012-12-09T08:28:51Z</time>
      </trkpt>
      <trkpt lat="44.55157" lon="0.9756">
        <ele>148.66</ele>
        <time>2012-12-09T08:29:17Z</time>
      </trkpt>
      <trkpt lat="44.55157" lon="0.97557">
        <ele>149.14</ele>
        <time>2012-12-09T08:29:42Z</time>
      </trkpt>
      <trkpt lat="44.55158" lon="0.9757">
        <ele>153.47</ele>
        <time>2012-12-09T08:30:05Z</time>
      </trkpt>
      <trkpt lat="44.55157" lon="0.9759">
        <ele>153.95</ele>
        <time>2012-12-09T08:30:15Z</time>
      </trkpt>
      <trkpt lat="44.55157" lon="0.97594">
        <ele>153.95</ele>
        <time>2012-12-09T08:30:17Z</time>
      </trkpt>
      <trkpt lat="44.5516" lon="0.97614">
        <ele>152.51</ele>
        <time>2012-12-09T08:30:24Z</time>
      </trkpt>
      <trkpt lat="44.55167" lon="0.97645">
        <ele>153.47</ele>
        <time>2012-12-09T08:30:35Z</time>
      </trkpt>
      <trkpt lat="44.55168" lon="0.97648">
        <ele>153.47</ele>
        <time>2012-12-09T08:30:36Z</time>
      </trkpt>
      <trkpt lat="44.55176" lon="0.97682">
        <ele>152.51</ele>
        <time>2012-12-09T08:30:48Z</time>
      </trkpt>
      <trkpt lat="44.55186" lon="0.97717">
        <ele>153.95</ele>
        <time>2012-12-09T08:30:59Z</time>
      </trkpt>
      <trkpt lat="44.55215" lon="0.97744">
        <ele>159.24</ele>
        <time>2012-12-09T08:31:10Z</time>
      </trkpt>
      <trkpt lat="44.55244" lon="0.97767">
        <ele>162.6</ele>
        <time>2012-12-09T08:31:21Z</time>
      </trkpt>
      <trkpt lat="44.55266" lon="0.97792">
        <ele>164.52</ele>
        <time>2012-12-09T08:31:31Z</time>
      </trkpt>
      <trkpt lat="44.55285" lon="0.97821">
        <ele>164.04</ele>
        <time>2012-12-09T08:31:42Z</time>
      </trkpt>
      <trkpt lat="44.55299" lon="0.97856">
        <ele>167.41</ele>
        <time>2012-12-09T08:31:55Z</time>
      </trkpt>
      <trkpt lat="44.55299" lon="0.97859">
        <ele>167.41</ele>
        <time>2012-12-09T08:31:56Z</time>
      </trkpt>
      <trkpt lat="44.55296" lon="0.97889">
        <ele>170.29</ele>
        <time>2012-12-09T08:32:10Z</time>
      </trkpt>
      <trkpt lat="44.55296" lon="0.97894">
        <ele>171.25</ele>
        <time>2012-12-09T08:32:26Z</time>
      </trkpt>
      <trkpt lat="44.55295" lon="0.97897">
        <ele>170.29</ele>
        <time>2012-12-09T08:32:49Z</time>
      </trkpt>
      <trkpt lat="44.55295" lon="0.979">
        <ele>170.29</ele>
        <time>2012-12-09T08:32:59Z</time>
      </trkpt>
      <trkpt lat="44.55295" lon="0.97914">
        <ele>169.33</ele>
        <time>2012-12-09T08:33:03Z</time>
      </trkpt>
      <trkpt lat="44.55294" lon="0.97947">
        <ele>168.37</ele>
        <time>2012-12-09T08:33:08Z</time>
      </trkpt>
      <trkpt lat="44.55291" lon="0.97965">
        <ele>168.85</ele>
        <time>2012-12-09T08:33:11Z</time>
      </trkpt>
      <trkpt lat="44.55285" lon="0.98009">
        <ele>167.41</ele>
        <time>2012-12-09T08:33:22Z</time>
      </trkpt>
      <trkpt lat="44.55274" lon="0.98028">
        <ele>161.64</ele>
        <time>2012-12-09T08:33:33Z</time>
      </trkpt>
      <trkpt lat="44.55271" lon="0.9803">
        <ele>160.2</ele>
        <time>2012-12-09T08:33:35Z</time>
      </trkpt>
      <trkpt lat="44.55245" lon="0.9805">
        <ele>162.12</ele>
        <time>2012-12-09T08:33:48Z</time>
      </trkpt>
      <trkpt lat="44.5522" lon="0.9807">
        <ele>162.6</ele>
        <time>2012-12-09T08:34:01Z</time>
      </trkpt>
      <trkpt lat="44.55212" lon="0.98074">
        <ele>162.6</ele>
        <time>2012-12-09T08:34:06Z</time>
      </trkpt>
      <trkpt lat="44.55202" lon="0.98084">
        <ele>163.08</ele>
        <time>2012-12-09T08:34:12Z</time>
      </trkpt>
      <trkpt lat="44.55196" lon="0.98094">
        <ele>163.56</ele>
        <time>2012-12-09T08:34:16Z</time>
      </trkpt>
      <trkpt lat="44.55195" lon="0.98101">
        <ele>164.04</ele>
        <time>2012-12-09T08:34:19Z</time>
      </trkpt>
      <trkpt lat="44.55188" lon="0.9814">
        <ele>165.96</ele>
        <time>2012-12-09T08:34:33Z</time>
      </trkpt>
      <trkpt lat="44.55187" lon="0.98141">
        <ele>165.96</ele>
        <time>2012-12-09T08:34:34Z</time>
      </trkpt>
      <trkpt lat="44.55152" lon="0.98148">
        <ele>170.29</ele>
        <time>2012-12-09T08:34:50Z</time>
      </trkpt>
      <trkpt lat="44.55125" lon="0.98156">
        <ele>174.14</ele>
        <time>2012-12-09T08:35:03Z</time>
      </trkpt>
      <trkpt lat="44.55095" lon="0.98161">
        <ele>177.02</ele>
        <time>2012-12-09T08:35:17Z</time>
      </trkpt>
      <trkpt lat="44.5506" lon="0.9816">
        <ele>180.87</ele>
        <time>2012-12-09T08:35:30Z</time>
      </trkpt>
      <trkpt lat="44.5503" lon="0.98154">
        <ele>181.83</ele>
        <time>2012-12-09T08:35:42Z</time>
      </trkpt>
      <trkpt lat="44.54994" lon="0.98147">
        <ele>187.11</ele>
        <time>2012-12-09T08:35:56Z</time>
      </trkpt>
      <trkpt lat="44.54985" lon="0.98143">
        <ele>187.59</ele>
        <time>2012-12-09T08:36:00Z</time>
      </trkpt>
      <trkpt lat="44.54963" lon="0.98129">
        <ele>188.08</ele>
        <time>2012-12-09T08:36:12Z</time>
      </trkpt>
      <trkpt lat="44.54959" lon="0.98128">
        <ele>191.44</ele>
        <time>2012-12-09T08:36:29Z</time>
      </trkpt>
      <trkpt lat="44.54958" lon="0.98128">
        <ele>192.88</ele>
        <time>2012-12-09T08:36:53Z</time>
      </trkpt>
      <trkpt lat="44.54956" lon="0.98133">
        <ele>200.57</ele>
        <time>2012-12-09T08:37:16Z</time>
      </trkpt>
      <trkpt lat="44.54959" lon="0.98135">
        <ele>205.86</ele>
        <time>2012-12-09T08:37:40Z</time>
      </trkpt>
      <trkpt lat="44.54955" lon="0.98134">
        <ele>209.22</ele>
        <time>2012-12-09T08:37:58Z</time>
      </trkpt>
      <trkpt lat="44.54953" lon="0.98133">
        <ele>208.74</ele>
        <time>2012-12-09T08:38:22Z</time>
      </trkpt>
      <trkpt lat="44.54953" lon="0.98127">
        <ele>210.19</ele>
        <time>2012-12-09T08:38:48Z</time>
      </trkpt>
      <trkpt lat="44.5491" lon="0.98098">
        <ele>206.82</ele>
        <time>2012-12-09T08:38:58Z</time>
      </trkpt>
      <trkpt lat="44.54892" lon="0.98084">
        <ele>205.38</ele>
        <time>2012-12-09T08:39:01Z</time>
      </trkpt>
      <trkpt lat="44.5488" lon="0.98071">
        <ele>204.9</ele>
        <time>2012-12-09T08:39:03Z</time>
      </trkpt>
      <trkpt lat="44.54862" lon="0.98051">
        <ele>203.46</ele>
        <time>2012-12-09T08:39:06Z</time>
      </trkpt>
      <trkpt lat="44.54794" lon="0.97995">
        <ele>199.61</ele>
        <time>2012-12-09T08:39:15Z</time>
      </trkpt>
      <trkpt lat="44.54744" lon="0.9798">
        <ele>193.36</ele>
        <time>2012-12-09T08:39:22Z</time>
      </trkpt>
      <trkpt lat="44.54737" lon="0.97973">
        <ele>192.4</ele>
        <time>2012-12-09T08:39:23Z</time>
      </trkpt>
      <trkpt lat="44.54692" lon="0.97927">
        <ele>187.11</ele>
        <time>2012-12-09T08:39:30Z</time>
      </trkpt>
      <trkpt lat="44.5468" lon="0.97908">
        <ele>184.71</ele>
        <time>2012-12-09T08:39:39Z</time>
      </trkpt>
      <trkpt lat="44.5468" lon="0.97909">
        <ele>184.71</ele>
        <time>2012-12-09T08:39:42Z</time>
      </trkpt>
      <trkpt lat="44.54665" lon="0.97897">
        <ele>184.71</ele>
        <time>2012-12-09T08:39:52Z</time>
      </trkpt>
      <trkpt lat="44.54647" lon="0.97886">
        <ele>184.23</ele>
        <time>2012-12-09T08:40:02Z</time>
      </trkpt>
      <trkpt lat="44.54601" lon="0.97855">
        <ele>183.27</ele>
        <time>2012-12-09T08:40:14Z</time>
      </trkpt>
      <trkpt lat="44.54562" lon="0.97821">
        <ele>184.23</ele>
        <time>2012-12-09T08:40:26Z</time>
      </trkpt>
      <trkpt lat="44.5454" lon="0.97799">
        <ele>189.04</ele>
        <time>2012-12-09T08:40:37Z</time>
      </trkpt>
      <trkpt lat="44.54529" lon="0.97763">
        <ele>190.96</ele>
        <time>2012-12-09T08:40:47Z</time>
      </trkpt>
      <trkpt lat="44.54513" lon="0.97698">
        <ele>187.59</ele>
        <time>2012-12-09T08:41:01Z</time>
      </trkpt>
      <trkpt lat="44.54504" lon="0.97632">
        <ele>186.63</ele>
        <time>2012-12-09T08:41:13Z</time>
      </trkpt>
      <trkpt lat="44.54503" lon="0.97601">
        <ele>188.08</ele>
        <time>2012-12-09T08:41:18Z</time>
      </trkpt>
      <trkpt lat="44.54504" lon="0.97522">
        <ele>193.84</ele>
        <time>2012-12-09T08:41:33Z</time>
      </trkpt>
      <trkpt lat="44.54503" lon="0.97462">
        <ele>192.4</ele>
        <time>2012-12-09T08:41:45Z</time>
      </trkpt>
      <trkpt lat="44.54501" lon="0.97431">
        <ele>189.52</ele>
        <time>2012-12-09T08:41:56Z</time>
      </trkpt>
      <trkpt lat="44.54496" lon="0.97404">
        <ele>190.48</ele>
        <time>2012-12-09T08:42:06Z</time>
      </trkpt>
      <trkpt lat="44.54489" lon="0.97314">
        <ele>186.63</ele>
        <time>2012-12-09T08:42:19Z</time>
      </trkpt>
      <trkpt lat="44.54486" lon="0.97279">
        <ele>185.19</ele>
        <time>2012-12-09T08:42:23Z</time>
      </trkpt>
      <trkpt lat="44.54486" lon="0.97239">
        <ele>183.27</ele>
        <time>2012-12-09T08:42:27Z</time>
      </trkpt>
      <trkpt lat="44.54487" lon="0.97219">
        <ele>182.31</ele>
        <time>2012-12-09T08:42:29Z</time>
      </trkpt>
      <trkpt lat="44.54475" lon="0.97181">
        <ele>179.9</ele>
        <time>2012-12-09T08:42:37Z</time>
      </trkpt>
      <trkpt lat="44.54473" lon="0.97178">
        <ele>181.83</ele>
        <time>2012-12-09T08:42:52Z</time>
      </trkpt>
      <trkpt lat="44.54487" lon="0.97137">
        <ele>178.46</ele>
        <time>2012-12-09T08:43:05Z</time>
      </trkpt>
      <trkpt lat="44.54498" lon="0.97106">
        <ele>177.5</ele>
        <time>2012-12-09T08:43:11Z</time>
      </trkpt>
      <trkpt lat="44.54511" lon="0.97067">
        <ele>178.46</ele>
        <time>2012-12-09T08:43:18Z</time>
      </trkpt>
      <trkpt lat="44.54537" lon="0.96977">
        <ele>181.35</ele>
        <time>2012-12-09T08:43:33Z</time>
      </trkpt>
      <trkpt lat="44.54539" lon="0.96966">
        <ele>182.31</ele>
        <time>2012-12-09T08:43:35Z</time>
      </trkpt>
      <trkpt lat="44.54556" lon="0.9689">
        <ele>188.56</ele>
        <time>2012-12-09T08:43:50Z</time>
      </trkpt>
      <trkpt lat="44.54563" lon="0.96866">
        <ele>191.92</ele>
        <time>2012-12-09T08:43:57Z</time>
      </trkpt>
      <trkpt lat="44.54565" lon="0.96856">
        <ele>193.36</ele>
        <time>2012-12-09T08:44:02Z</time>
      </trkpt>
      <trkpt lat="44.54567" lon="0.96845">
        <ele>193.36</ele>
        <time>2012-12-09T08:44:13Z</time>
      </trkpt>
      <trkpt lat="44.54569" lon="0.96839">
        <ele>192.88</ele>
        <time>2012-12-09T08:44:25Z</time>
      </trkpt>
      <trkpt lat="44.54568" lon="0.9684">
        <ele>194.32</ele>
        <time>2012-12-09T08:44:42Z</time>
      </trkpt>
      <trkpt lat="44.54569" lon="0.96837">
        <ele>193.84</ele>
        <time>2012-12-09T08:45:10Z</time>
      </trkpt>
      <trkpt lat="44.54573" lon="0.96806">
        <ele>191.44</ele>
        <time>2012-12-09T08:45:21Z</time>
      </trkpt>
      <trkpt lat="44.54579" lon="0.96758">
        <ele>188.08</ele>
        <time>2012-12-09T08:45:29Z</time>
      </trkpt>
      <trkpt lat="44.54594" lon="0.96675">
        <ele>188.08</ele>
        <time>2012-12-09T08:45:45Z</time>
      </trkpt>
      <trkpt lat="44.54592" lon="0.96615">
        <ele>188.08</ele>
        <time>2012-12-09T08:45:57Z</time>
      </trkpt>
      <trkpt lat="44.54591" lon="0.96602">
        <ele>187.59</ele>
        <time>2012-12-09T08:45:59Z</time>
      </trkpt>
      <trkpt lat="44.5459" lon="0.96588">
        <ele>187.11</ele>
        <time>2012-12-09T08:46:01Z</time>
      </trkpt>
      <trkpt lat="44.54604" lon="0.96571">
        <ele>184.71</ele>
        <time>2012-12-09T08:46:07Z</time>
      </trkpt>
      <trkpt lat="44.54631" lon="0.96581">
        <ele>182.79</ele>
        <time>2012-12-09T08:46:12Z</time>
      </trkpt>
      <trkpt lat="44.54648" lon="0.96586">
        <ele>182.31</ele>
        <time>2012-12-09T08:46:15Z</time>
      </trkpt>
      <trkpt lat="44.54681" lon="0.96558">
        <ele>180.87</ele>
        <time>2012-12-09T08:46:22Z</time>
      </trkpt>
      <trkpt lat="44.54697" lon="0.96532">
        <ele>180.87</ele>
        <time>2012-12-09T08:46:26Z</time>
      </trkpt>
      <trkpt lat="44.54707" lon="0.96509">
        <ele>180.38</ele>
        <time>2012-12-09T08:46:30Z</time>
      </trkpt>
      <trkpt lat="44.5471" lon="0.96501">
        <ele>180.38</ele>
        <time>2012-12-09T08:46:32Z</time>
      </trkpt>
      <trkpt lat="44.54717" lon="0.96485">
        <ele>180.38</ele>
        <time>2012-12-09T08:46:35Z</time>
      </trkpt>
      <trkpt lat="44.54715" lon="0.96456">
        <ele>178.46</ele>
        <time>2012-12-09T08:46:39Z</time>
      </trkpt>
      <trkpt lat="44.54696" lon="0.96414">
        <ele>176.54</ele>
        <time>2012-12-09T08:46:44Z</time>
      </trkpt>
      <trkpt lat="44.54675" lon="0.96377">
        <ele>174.14</ele>
        <time>2012-12-09T08:46:48Z</time>
      </trkpt>
      <trkpt lat="44.54659" lon="0.96326">
        <ele>172.21</ele>
        <time>2012-12-09T08:46:52Z</time>
      </trkpt>
      <trkpt lat="44.54635" lon="0.96292">
        <ele>172.21</ele>
        <time>2012-12-09T08:46:56Z</time>
      </trkpt>
      <trkpt lat="44.54612" lon="0.96235">
        <ele>173.17</ele>
        <time>2012-12-09T08:47:03Z</time>
      </trkpt>
      <trkpt lat="44.54602" lon="0.96158">
        <ele>177.5</ele>
        <time>2012-12-09T08:47:12Z</time>
      </trkpt>
      <trkpt lat="44.54607" lon="0.96132">
        <ele>180.38</ele>
        <time>2012-12-09T08:47:20Z</time>
      </trkpt>
      <trkpt lat="44.54607" lon="0.96134">
        <ele>182.79</ele>
        <time>2012-12-09T08:47:30Z</time>
      </trkpt>
      <trkpt lat="44.54607" lon="0.96134">
        <ele>185.19</ele>
        <time>2012-12-09T08:47:52Z</time>
      </trkpt>
      <trkpt lat="44.54605" lon="0.96133">
        <ele>188.56</ele>
        <time>2012-12-09T08:48:17Z</time>
      </trkpt>
      <trkpt lat="44.54605" lon="0.96135">
        <ele>191.44</ele>
        <time>2012-12-09T08:48:52Z</time>
      </trkpt>
      <trkpt lat="44.54604" lon="0.96134">
        <ele>194.8</ele>
        <time>2012-12-09T08:49:29Z</time>
      </trkpt>
      <trkpt lat="44.54604" lon="0.96134">
        <ele>194.8</ele>
        <time>2012-12-09T08:50:03Z</time>
      </trkpt>
      <trkpt lat="44.54605" lon="0.96132">
        <ele>192.88</ele>
        <time>2012-12-09T08:50:28Z</time>
      </trkpt>
      <trkpt lat="44.54605" lon="0.96133">
        <ele>192.88</ele>
        <time>2012-12-09T08:50:57Z</time>
      </trkpt>
      <trkpt lat="44.54604" lon="0.96133">
        <ele>191.92</ele>
        <time>2012-12-09T08:51:14Z</time>
      </trkpt>
      <trkpt lat="44.54597" lon="0.96117">
        <ele>192.4</ele>
        <time>2012-12-09T08:51:21Z</time>
      </trkpt>
      <trkpt lat="44.54582" lon="0.96078">
        <ele>192.88</ele>
        <time>2012-12-09T08:51:31Z</time>
      </trkpt>
      <trkpt lat="44.54581" lon="0.9605">
        <ele>191.44</ele>
        <time>2012-12-09T08:51:36Z</time>
      </trkpt>
      <trkpt lat="44.54573" lon="0.95991">
        <ele>191.92</ele>
        <time>2012-12-09T08:51:47Z</time>
      </trkpt>
      <trkpt lat="44.54573" lon="0.95966">
        <ele>191.92</ele>
        <time>2012-12-09T08:51:50Z</time>
      </trkpt>
      <trkpt lat="44.54576" lon="0.95947">
        <ele>191.44</ele>
        <time>2012-12-09T08:51:52Z</time>
      </trkpt>
      <trkpt lat="44.54579" lon="0.95932">
        <ele>190.48</ele>
        <time>2012-12-09T08:51:54Z</time>
      </trkpt>
      <trkpt lat="44.54586" lon="0.95898">
        <ele>187.59</ele>
        <time>2012-12-09T08:51:58Z</time>
      </trkpt>
      <trkpt lat="44.54602" lon="0.95853">
        <ele>184.71</ele>
        <time>2012-12-09T08:52:04Z</time>
      </trkpt>
      <trkpt lat="44.54615" lon="0.95817">
        <ele>183.75</ele>
        <time>2012-12-09T08:52:09Z</time>
      </trkpt>
      <trkpt lat="44.54629" lon="0.95781">
        <ele>182.31</ele>
        <time>2012-12-09T08:52:15Z</time>
      </trkpt>
      <trkpt lat="44.54627" lon="0.95769">
        <ele>180.87</ele>
        <time>2012-12-09T08:52:18Z</time>
      </trkpt>
      <trkpt lat="44.54647" lon="0.95708">
        <ele>177.02</ele>
        <time>2012-12-09T08:52:29Z</time>
      </trkpt>
      <trkpt lat="44.54652" lon="0.95697">
        <ele>176.54</ele>
        <time>2012-12-09T08:52:31Z</time>
      </trkpt>
      <trkpt lat="44.54664" lon="0.95675">
        <ele>175.58</ele>
        <time>2012-12-09T08:52:35Z</time>
      </trkpt>
      <trkpt lat="44.54672" lon="0.95655">
        <ele>175.1</ele>
        <time>2012-12-09T08:52:38Z</time>
      </trkpt>
      <trkpt lat="44.5468" lon="0.95635">
        <ele>174.62</ele>
        <time>2012-12-09T08:52:41Z</time>
      </trkpt>
      <trkpt lat="44.54703" lon="0.95575">
        <ele>170.29</ele>
        <time>2012-12-09T08:52:52Z</time>
      </trkpt>
      <trkpt lat="44.54719" lon="0.95518">
        <ele>163.56</ele>
        <time>2012-12-09T08:53:00Z</time>
      </trkpt>
      <trkpt lat="44.54722" lon="0.95448">
        <ele>157.79</ele>
        <time>2012-12-09T08:53:09Z</time>
      </trkpt>
      <trkpt lat="44.54723" lon="0.95432">
        <ele>157.31</ele>
        <time>2012-12-09T08:53:11Z</time>
      </trkpt>
      <trkpt lat="44.54724" lon="0.954">
        <ele>158.75</ele>
        <time>2012-12-09T08:53:15Z</time>
      </trkpt>
      <trkpt lat="44.54725" lon="0.95362">
        <ele>158.75</ele>
        <time>2012-12-09T08:53:20Z</time>
      </trkpt>
      <trkpt lat="44.54729" lon="0.95335">
        <ele>159.24</ele>
        <time>2012-12-09T08:53:24Z</time>
      </trkpt>
      <trkpt lat="44.54732" lon="0.95321">
        <ele>159.24</ele>
        <time>2012-12-09T08:53:26Z</time>
      </trkpt>
      <trkpt lat="44.54737" lon="0.95308">
        <ele>158.75</ele>
        <time>2012-12-09T08:53:28Z</time>
      </trkpt>
      <trkpt lat="44.54756" lon="0.95226">
        <ele>154.91</ele>
        <time>2012-12-09T08:53:39Z</time>
      </trkpt>
      <trkpt lat="44.54748" lon="0.95205">
        <ele>152.99</ele>
        <time>2012-12-09T08:53:43Z</time>
      </trkpt>
      <trkpt lat="44.5474" lon="0.95197">
        <ele>152.03</ele>
        <time>2012-12-09T08:53:45Z</time>
      </trkpt>
      <trkpt lat="44.54728" lon="0.9517">
        <ele>149.14</ele>
        <time>2012-12-09T08:53:50Z</time>
      </trkpt>
      <trkpt lat="44.54726" lon="0.95146">
        <ele>146.74</ele>
        <time>2012-12-09T08:53:54Z</time>
      </trkpt>
      <trkpt lat="44.54735" lon="0.95128">
        <ele>143.85</ele>
        <time>2012-12-09T08:53:59Z</time>
      </trkpt>
      <trkpt lat="44.54736" lon="0.95122">
        <ele>143.37</ele>
        <time>2012-12-09T08:54:01Z</time>
      </trkpt>
      <trkpt lat="44.54734" lon="0.95118">
        <ele>142.89</ele>
        <time>2012-12-09T08:54:14Z</time>
      </trkpt>
      <trkpt lat="44.54731" lon="0.95117">
        <ele>143.37</ele>
        <time>2012-12-09T08:54:35Z</time>
      </trkpt>
      <trkpt lat="44.5473" lon="0.95114">
        <ele>141.93</ele>
        <time>2012-12-09T08:55:03Z</time>
      </trkpt>
      <trkpt lat="44.54731" lon="0.95116">
        <ele>143.85</ele>
        <time>2012-12-09T08:55:44Z</time>
      </trkpt>
      <trkpt lat="44.54731" lon="0.95114">
        <ele>142.41</ele>
        <time>2012-12-09T08:56:18Z</time>
      </trkpt>
      <trkpt lat="44.54733" lon="0.95116">
        <ele>142.89</ele>
        <time>2012-12-09T08:56:51Z</time>
      </trkpt>
      <trkpt lat="44.54733" lon="0.95116">
        <ele>143.85</ele>
        <time>2012-12-09T08:57:33Z</time>
      </trkpt>
      <trkpt lat="44.54732" lon="0.95115">
        <ele>143.37</ele>
        <time>2012-12-09T08:58:10Z</time>
      </trkpt>
      <trkpt lat="44.5473" lon="0.95115">
        <ele>140.97</ele>
        <time>2012-12-09T08:58:45Z</time>
      </trkpt>
      <trkpt lat="44.5473" lon="0.95113">
        <ele>143.37</ele>
        <time>2012-12-09T08:59:25Z</time>
      </trkpt>
      <trkpt lat="44.54731" lon="0.95114">
        <ele>142.41</ele>
        <time>2012-12-09T09:00:04Z</time>
      </trkpt>
      <trkpt lat="44.54732" lon="0.95114">
        <ele>145.3</ele>
        <time>2012-12-09T09:00:44Z</time>
      </trkpt>
      <trkpt lat="44.54731" lon="0.95113">
        <ele>143.85</ele>
        <time>2012-12-09T09:01:14Z</time>
      </trkpt>
      <trkpt lat="44.54732" lon="0.95114">
        <ele>143.37</ele>
        <time>2012-12-09T09:01:51Z</time>
      </trkpt>
      <trkpt lat="44.54731" lon="0.95115">
        <ele>143.37</ele>
        <time>2012-12-09T09:02:28Z</time>
      </trkpt>
      <trkpt lat="44.5473" lon="0.95113">
        <ele>144.82</ele>
        <time>2012-12-09T09:03:07Z</time>
      </trkpt>
      <trkpt lat="44.54728" lon="0.95117">
        <ele>143.85</ele>
        <time>2012-12-09T09:03:23Z</time>
      </trkpt>
      <trkpt lat="44.54728" lon="0.95117">
        <ele>143.85</ele>
        <time>2012-12-09T09:03:42Z</time>
      </trkpt>
      <trkpt lat="44.54728" lon="0.95117">
        <ele>144.34</ele>
        <time>2012-12-09T09:03:58Z</time>
      </trkpt>
      <trkpt lat="44.54727" lon="0.95117">
        <ele>144.34</ele>
        <time>2012-12-09T09:04:02Z</time>
      </trkpt>
      <trkpt lat="44.54718" lon="0.95118">
        <ele>144.34</ele>
        <time>2012-12-09T09:04:07Z</time>
      </trkpt>
      <trkpt lat="44.54679" lon="0.95109">
        <ele>140.49</ele>
        <time>2012-12-09T09:04:17Z</time>
      </trkpt>
      <trkpt lat="44.54652" lon="0.95091">
        <ele>139.53</ele>
        <time>2012-12-09T09:04:23Z</time>
      </trkpt>
      <trkpt lat="44.54625" lon="0.95108">
        <ele>137.13</ele>
        <time>2012-12-09T09:04:30Z</time>
      </trkpt>
      <trkpt lat="44.54606" lon="0.95125">
        <ele>136.16</ele>
        <time>2012-12-09T09:04:35Z</time>
      </trkpt>
      <trkpt lat="44.54594" lon="0.95128">
        <ele>136.64</ele>
        <time>2012-12-09T09:04:38Z</time>
      </trkpt>
      <trkpt lat="44.54522" lon="0.95114">
        <ele>135.2</ele>
        <time>2012-12-09T09:04:54Z</time>
      </trkpt>
      <trkpt lat="44.54497" lon="0.95117">
        <ele>133.28</ele>
        <time>2012-12-09T09:04:58Z</time>
      </trkpt>
      <trkpt lat="44.54476" lon="0.95123">
        <ele>131.36</ele>
        <time>2012-12-09T09:05:01Z</time>
      </trkpt>
      <trkpt lat="44.54433" lon="0.95111">
        <ele>130.4</ele>
        <time>2012-12-09T09:05:08Z</time>
      </trkpt>
      <trkpt lat="44.54426" lon="0.95129">
        <ele>130.4</ele>
        <time>2012-12-09T09:05:13Z</time>
      </trkpt>
      <trkpt lat="44.54414" lon="0.95178">
        <ele>133.76</ele>
        <time>2012-12-09T09:05:27Z</time>
      </trkpt>
      <trkpt lat="44.54399" lon="0.95242">
        <ele>140.49</ele>
        <time>2012-12-09T09:05:44Z</time>
      </trkpt>
      <trkpt lat="44.54393" lon="0.95298">
        <ele>142.41</ele>
        <time>2012-12-09T09:05:57Z</time>
      </trkpt>
      <trkpt lat="44.54388" lon="0.95368">
        <ele>142.89</ele>
        <time>2012-12-09T09:06:11Z</time>
      </trkpt>
      <trkpt lat="44.54371" lon="0.95411">
        <ele>142.41</ele>
        <time>2012-12-09T09:06:23Z</time>
      </trkpt>
      <trkpt lat="44.54336" lon="0.9543">
        <ele>146.74</ele>
        <time>2012-12-09T09:06:36Z</time>
      </trkpt>
      <trkpt lat="44.54299" lon="0.95438">
        <ele>150.1</ele>
        <time>2012-12-09T09:06:48Z</time>
      </trkpt>
      <trkpt lat="44.54286" lon="0.95442">
        <ele>150.1</ele>
        <time>2012-12-09T09:06:51Z</time>
      </trkpt>
      <trkpt lat="44.54211" lon="0.95487">
        <ele>146.74</ele>
        <time>2012-12-09T09:07:05Z</time>
      </trkpt>
      <trkpt lat="44.54158" lon="0.95521">
        <ele>149.14</ele>
        <time>2012-12-09T09:07:18Z</time>
      </trkpt>
      <trkpt lat="44.54125" lon="0.95513">
        <ele>148.66</ele>
        <time>2012-12-09T09:07:28Z</time>
      </trkpt>
      <trkpt lat="44.54098" lon="0.95484">
        <ele>147.7</ele>
        <time>2012-12-09T09:07:35Z</time>
      </trkpt>
      <trkpt lat="44.54072" lon="0.95483">
        <ele>146.74</ele>
        <time>2012-12-09T09:07:41Z</time>
      </trkpt>
      <trkpt lat="44.5404" lon="0.95568">
        <ele>140.01</ele>
        <time>2012-12-09T09:07:50Z</time>
      </trkpt>
      <trkpt lat="44.54028" lon="0.95583">
        <ele>139.53</ele>
        <time>2012-12-09T09:07:52Z</time>
      </trkpt>
      <trkpt lat="44.54014" lon="0.95595">
        <ele>138.57</ele>
        <time>2012-12-09T09:07:54Z</time>
      </trkpt>
      <trkpt lat="44.53943" lon="0.95693">
        <ele>131.84</ele>
        <time>2012-12-09T09:08:04Z</time>
      </trkpt>
      <trkpt lat="44.53893" lon="0.95773">
        <ele>124.63</ele>
        <time>2012-12-09T09:08:11Z</time>
      </trkpt>
      <trkpt lat="44.53876" lon="0.95796">
        <ele>124.15</ele>
        <time>2012-12-09T09:08:18Z</time>
      </trkpt>
      <trkpt lat="44.53865" lon="0.95806">
        <ele>123.67</ele>
        <time>2012-12-09T09:08:23Z</time>
      </trkpt>
      <trkpt lat="44.53821" lon="0.95831">
        <ele>119.82</ele>
        <time>2012-12-09T09:08:35Z</time>
      </trkpt>
      <trkpt lat="44.53738" lon="0.95855">
        <ele>120.3</ele>
        <time>2012-12-09T09:08:52Z</time>
      </trkpt>
      <trkpt lat="44.53727" lon="0.95855">
        <ele>121.26</ele>
        <time>2012-12-09T09:08:54Z</time>
      </trkpt>
      <trkpt lat="44.53697" lon="0.95849">
        <ele>124.63</ele>
        <time>2012-12-09T09:08:59Z</time>
      </trkpt>
      <trkpt lat="44.53686" lon="0.95845">
        <ele>126.07</ele>
        <time>2012-12-09T09:09:01Z</time>
      </trkpt>
      <trkpt lat="44.53635" lon="0.95821">
        <ele>133.76</ele>
        <time>2012-12-09T09:09:14Z</time>
      </trkpt>
      <trkpt lat="44.536" lon="0.95809">
        <ele>135.68</ele>
        <time>2012-12-09T09:09:26Z</time>
      </trkpt>
      <trkpt lat="44.53593" lon="0.95815">
        <ele>135.68</ele>
        <time>2012-12-09T09:09:32Z</time>
      </trkpt>
      <trkpt lat="44.53592" lon="0.95819">
        <ele>136.16</ele>
        <time>2012-12-09T09:09:39Z</time>
      </trkpt>
      <trkpt lat="44.5359" lon="0.95822">
        <ele>136.16</ele>
        <time>2012-12-09T09:09:42Z</time>
      </trkpt>
      <trkpt lat="44.53585" lon="0.95848">
        <ele>137.13</ele>
        <time>2012-12-09T09:09:55Z</time>
      </trkpt>
      <trkpt lat="44.53579" lon="0.95884">
        <ele>138.57</ele>
        <time>2012-12-09T09:10:10Z</time>
      </trkpt>
      <trkpt lat="44.53568" lon="0.95933">
        <ele>142.89</ele>
        <time>2012-12-09T09:10:24Z</time>
      </trkpt>
      <trkpt lat="44.5355" lon="0.95979">
        <ele>148.18</ele>
        <time>2012-12-09T09:10:40Z</time>
      </trkpt>
      <trkpt lat="44.5354" lon="0.9601">
        <ele>149.14</ele>
        <time>2012-12-09T09:10:54Z</time>
      </trkpt>
      <trkpt lat="44.53533" lon="0.96039">
        <ele>150.58</ele>
        <time>2012-12-09T09:11:03Z</time>
      </trkpt>
      <trkpt lat="44.53527" lon="0.96058">
        <ele>152.03</ele>
        <time>2012-12-09T09:11:10Z</time>
      </trkpt>
      <trkpt lat="44.53507" lon="0.96104">
        <ele>153.47</ele>
        <time>2012-12-09T09:11:26Z</time>
      </trkpt>
      <trkpt lat="44.5349" lon="0.96153">
        <ele>158.75</ele>
        <time>2012-12-09T09:11:42Z</time>
      </trkpt>
      <trkpt lat="44.53484" lon="0.96175">
        <ele>159.24</ele>
        <time>2012-12-09T09:11:50Z</time>
      </trkpt>
      <trkpt lat="44.5348" lon="0.96186">
        <ele>159.72</ele>
        <time>2012-12-09T09:11:54Z</time>
      </trkpt>
      <trkpt lat="44.53473" lon="0.96216">
        <ele>159.24</ele>
        <time>2012-12-09T09:12:04Z</time>
      </trkpt>
      <trkpt lat="44.53478" lon="0.96259">
        <ele>159.24</ele>
        <time>2012-12-09T09:12:18Z</time>
      </trkpt>
      <trkpt lat="44.53479" lon="0.96294">
        <ele>157.79</ele>
        <time>2012-12-09T09:12:30Z</time>
      </trkpt>
      <trkpt lat="44.53478" lon="0.96293">
        <ele>157.31</ele>
        <time>2012-12-09T09:12:45Z</time>
      </trkpt>
      <trkpt lat="44.53476" lon="0.96296">
        <ele>156.83</ele>
        <time>2012-12-09T09:13:03Z</time>
      </trkpt>
      <trkpt lat="44.53475" lon="0.96297">
        <ele>156.35</ele>
        <time>2012-12-09T09:13:08Z</time>
      </trkpt>
      <trkpt lat="44.53478" lon="0.96306">
        <ele>156.83</ele>
        <time>2012-12-09T09:13:15Z</time>
      </trkpt>
      <trkpt lat="44.53479" lon="0.96342">
        <ele>157.79</ele>
        <time>2012-12-09T09:13:29Z</time>
      </trkpt>
      <trkpt lat="44.53476" lon="0.96356">
        <ele>158.75</ele>
        <time>2012-12-09T09:13:41Z</time>
      </trkpt>
      <trkpt lat="44.53459" lon="0.9639">
        <ele>158.75</ele>
        <time>2012-12-09T09:13:53Z</time>
      </trkpt>
      <trkpt lat="44.5344" lon="0.96433">
        <ele>161.64</ele>
        <time>2012-12-09T09:14:06Z</time>
      </trkpt>
      <trkpt lat="44.53417" lon="0.96494">
        <ele>164.52</ele>
        <time>2012-12-09T09:14:21Z</time>
      </trkpt>
      <trkpt lat="44.53378" lon="0.96522">
        <ele>165</ele>
        <time>2012-12-09T09:14:34Z</time>
      </trkpt>
      <trkpt lat="44.53343" lon="0.96551">
        <ele>166.45</ele>
        <time>2012-12-09T09:14:47Z</time>
      </trkpt>
      <trkpt lat="44.53332" lon="0.96567">
        <ele>167.41</ele>
        <time>2012-12-09T09:14:52Z</time>
      </trkpt>
      <trkpt lat="44.53321" lon="0.96583">
        <ele>165.96</ele>
        <time>2012-12-09T09:14:57Z</time>
      </trkpt>
      <trkpt lat="44.53306" lon="0.966">
        <ele>164.04</ele>
        <time>2012-12-09T09:15:01Z</time>
      </trkpt>
      <trkpt lat="44.53285" lon="0.96611">
        <ele>162.12</ele>
        <time>2012-12-09T09:15:05Z</time>
      </trkpt>
      <trkpt lat="44.53254" lon="0.9662">
        <ele>160.68</ele>
        <time>2012-12-09T09:15:10Z</time>
      </trkpt>
      <trkpt lat="44.53242" lon="0.96624">
        <ele>160.68</ele>
        <time>2012-12-09T09:15:12Z</time>
      </trkpt>
      <trkpt lat="44.53216" lon="0.96622">
        <ele>161.16</ele>
        <time>2012-12-09T09:15:17Z</time>
      </trkpt>
      <trkpt lat="44.53191" lon="0.96624">
        <ele>162.6</ele>
        <time>2012-12-09T09:15:23Z</time>
      </trkpt>
      <trkpt lat="44.53169" lon="0.96634">
        <ele>163.56</ele>
        <time>2012-12-09T09:15:32Z</time>
      </trkpt>
      <trkpt lat="44.53138" lon="0.96656">
        <ele>162.6</ele>
        <time>2012-12-09T09:15:44Z</time>
      </trkpt>
      <trkpt lat="44.53126" lon="0.96668">
        <ele>163.08</ele>
        <time>2012-12-09T09:15:48Z</time>
      </trkpt>
      <trkpt lat="44.53109" lon="0.96681">
        <ele>162.6</ele>
        <time>2012-12-09T09:15:52Z</time>
      </trkpt>
      <trkpt lat="44.53096" lon="0.96701">
        <ele>161.64</ele>
        <time>2012-12-09T09:15:56Z</time>
      </trkpt>
      <trkpt lat="44.53087" lon="0.96723">
        <ele>160.2</ele>
        <time>2012-12-09T09:16:00Z</time>
      </trkpt>
      <trkpt lat="44.53081" lon="0.9674">
        <ele>159.24</ele>
        <time>2012-12-09T09:16:03Z</time>
      </trkpt>
      <trkpt lat="44.53067" lon="0.96756">
        <ele>157.79</ele>
        <time>2012-12-09T09:16:07Z</time>
      </trkpt>
      <trkpt lat="44.53035" lon="0.96757">
        <ele>156.83</ele>
        <time>2012-12-09T09:16:14Z</time>
      </trkpt>
      <trkpt lat="44.53008" lon="0.96762">
        <ele>158.27</ele>
        <time>2012-12-09T09:16:20Z</time>
      </trkpt>
      <trkpt lat="44.52959" lon="0.96756">
        <ele>163.56</ele>
        <time>2012-12-09T09:16:33Z</time>
      </trkpt>
      <trkpt lat="44.52928" lon="0.9674">
        <ele>169.33</ele>
        <time>2012-12-09T09:16:49Z</time>
      </trkpt>
      <trkpt lat="44.52925" lon="0.96735">
        <ele>171.73</ele>
        <time>2012-12-09T09:17:02Z</time>
      </trkpt>
      <trkpt lat="44.52907" lon="0.96723">
        <ele>174.14</ele>
        <time>2012-12-09T09:17:13Z</time>
      </trkpt>
      <trkpt lat="44.52862" lon="0.96712">
        <ele>171.73</ele>
        <time>2012-12-09T09:17:28Z</time>
      </trkpt>
      <trkpt lat="44.52817" lon="0.96693">
        <ele>174.14</ele>
        <time>2012-12-09T09:17:40Z</time>
      </trkpt>
      <trkpt lat="44.52776" lon="0.96673">
        <ele>177.02</ele>
        <time>2012-12-09T09:17:53Z</time>
      </trkpt>
      <trkpt lat="44.52732" lon="0.96642">
        <ele>178.46</ele>
        <time>2012-12-09T09:18:08Z</time>
      </trkpt>
      <trkpt lat="44.52722" lon="0.96637">
        <ele>177.02</ele>
        <time>2012-12-09T09:18:17Z</time>
      </trkpt>
      <trkpt lat="44.52721" lon="0.96636">
        <ele>176.54</ele>
        <time>2012-12-09T09:18:42Z</time>
      </trkpt>
      <trkpt lat="44.52721" lon="0.96638">
        <ele>176.54</ele>
        <time>2012-12-09T09:18:52Z</time>
      </trkpt>
      <trkpt lat="44.52733" lon="0.96672">
        <ele>175.58</ele>
        <time>2012-12-09T09:19:04Z</time>
      </trkpt>
      <trkpt lat="44.52748" lon="0.96707">
        <ele>177.98</ele>
        <time>2012-12-09T09:19:18Z</time>
      </trkpt>
      <trkpt lat="44.52756" lon="0.96751">
        <ele>180.87</ele>
        <time>2012-12-09T09:19:33Z</time>
      </trkpt>
      <trkpt lat="44.52771" lon="0.96807">
        <ele>185.19</ele>
        <time>2012-12-09T09:19:50Z</time>
      </trkpt>
      <trkpt lat="44.52791" lon="0.96838">
        <ele>190.96</ele>
        <time>2012-12-09T09:20:03Z</time>
      </trkpt>
      <trkpt lat="44.52804" lon="0.96851">
        <ele>192.4</ele>
        <time>2012-12-09T09:20:16Z</time>
      </trkpt>
      <trkpt lat="44.52803" lon="0.96851">
        <ele>190</ele>
        <time>2012-12-09T09:20:36Z</time>
      </trkpt>
      <trkpt lat="44.52804" lon="0.9685">
        <ele>188.56</ele>
        <time>2012-12-09T09:21:06Z</time>
      </trkpt>
      <trkpt lat="44.52805" lon="0.96853">
        <ele>190.48</ele>
        <time>2012-12-09T09:21:31Z</time>
      </trkpt>
      <trkpt lat="44.52809" lon="0.96869">
        <ele>189.52</ele>
        <time>2012-12-09T09:21:36Z</time>
      </trkpt>
      <trkpt lat="44.5282" lon="0.96886">
        <ele>189.04</ele>
        <time>2012-12-09T09:21:40Z</time>
      </trkpt>
      <trkpt lat="44.52829" lon="0.96909">
        <ele>188.08</ele>
        <time>2012-12-09T09:21:44Z</time>
      </trkpt>
      <trkpt lat="44.5283" lon="0.96922">
        <ele>187.59</ele>
        <time>2012-12-09T09:21:46Z</time>
      </trkpt>
      <trkpt lat="44.52844" lon="0.96979">
        <ele>189.04</ele>
        <time>2012-12-09T09:21:58Z</time>
      </trkpt>
      <trkpt lat="44.52835" lon="0.97021">
        <ele>186.15</ele>
        <time>2012-12-09T09:22:09Z</time>
      </trkpt>
      <trkpt lat="44.52822" lon="0.97072">
        <ele>182.31</ele>
        <time>2012-12-09T09:22:16Z</time>
      </trkpt>
      <trkpt lat="44.52811" lon="0.97098">
        <ele>179.9</ele>
        <time>2012-12-09T09:22:19Z</time>
      </trkpt>
      <trkpt lat="44.52805" lon="0.97117">
        <ele>178.46</ele>
        <time>2012-12-09T09:22:21Z</time>
      </trkpt>
      <trkpt lat="44.52782" lon="0.97212">
        <ele>169.33</ele>
        <time>2012-12-09T09:22:30Z</time>
      </trkpt>
      <trkpt lat="44.52776" lon="0.97255">
        <ele>165.96</ele>
        <time>2012-12-09T09:22:34Z</time>
      </trkpt>
      <trkpt lat="44.5277" lon="0.97299">
        <ele>162.6</ele>
        <time>2012-12-09T09:22:38Z</time>
      </trkpt>
      <trkpt lat="44.52764" lon="0.97331">
        <ele>160.68</ele>
        <time>2012-12-09T09:22:41Z</time>
      </trkpt>
      <trkpt lat="44.52757" lon="0.97348">
        <ele>160.2</ele>
        <time>2012-12-09T09:22:49Z</time>
      </trkpt>
      <trkpt lat="44.52754" lon="0.97351">
        <ele>162.6</ele>
        <time>2012-12-09T09:23:06Z</time>
      </trkpt>
      <trkpt lat="44.52741" lon="0.97315">
        <ele>162.6</ele>
        <time>2012-12-09T09:23:15Z</time>
      </trkpt>
      <trkpt lat="44.52733" lon="0.97291">
        <ele>161.64</ele>
        <time>2012-12-09T09:23:19Z</time>
      </trkpt>
      <trkpt lat="44.52688" lon="0.97175">
        <ele>156.35</ele>
        <time>2012-12-09T09:23:33Z</time>
      </trkpt>
      <trkpt lat="44.52644" lon="0.97085">
        <ele>151.54</ele>
        <time>2012-12-09T09:23:42Z</time>
      </trkpt>
      <trkpt lat="44.52622" lon="0.97003">
        <ele>147.22</ele>
        <time>2012-12-09T09:23:51Z</time>
      </trkpt>
      <trkpt lat="44.52609" lon="0.96963">
        <ele>146.74</ele>
        <time>2012-12-09T09:24:01Z</time>
      </trkpt>
      <trkpt lat="44.52593" lon="0.96917">
        <ele>148.66</ele>
        <time>2012-12-09T09:24:15Z</time>
      </trkpt>
      <trkpt lat="44.52588" lon="0.96908">
        <ele>147.7</ele>
        <time>2012-12-09T09:24:27Z</time>
      </trkpt>
      <trkpt lat="44.52587" lon="0.96903">
        <ele>148.18</ele>
        <time>2012-12-09T09:24:29Z</time>
      </trkpt>
      <trkpt lat="44.5257" lon="0.96867">
        <ele>147.22</ele>
        <time>2012-12-09T09:24:41Z</time>
      </trkpt>
      <trkpt lat="44.52556" lon="0.96841">
        <ele>142.89</ele>
        <time>2012-12-09T09:24:52Z</time>
      </trkpt>
      <trkpt lat="44.52553" lon="0.96839">
        <ele>140.97</ele>
        <time>2012-12-09T09:25:04Z</time>
      </trkpt>
      <trkpt lat="44.52553" lon="0.96839">
        <ele>144.82</ele>
        <time>2012-12-09T09:25:35Z</time>
      </trkpt>
      <trkpt lat="44.52549" lon="0.96831">
        <ele>146.74</ele>
        <time>2012-12-09T09:25:45Z</time>
      </trkpt>
      <trkpt lat="44.52541" lon="0.96817">
        <ele>144.82</ele>
        <time>2012-12-09T09:25:59Z</time>
      </trkpt>
      <trkpt lat="44.52538" lon="0.96819">
        <ele>146.74</ele>
        <time>2012-12-09T09:26:22Z</time>
      </trkpt>
      <trkpt lat="44.52529" lon="0.96806">
        <ele>146.26</ele>
        <time>2012-12-09T09:26:30Z</time>
      </trkpt>
      <trkpt lat="44.52522" lon="0.9678">
        <ele>145.78</ele>
        <time>2012-12-09T09:26:34Z</time>
      </trkpt>
      <trkpt lat="44.52493" lon="0.96679">
        <ele>140.49</ele>
        <time>2012-12-09T09:26:47Z</time>
      </trkpt>
      <trkpt lat="44.52453" lon="0.96579">
        <ele>134.72</ele>
        <time>2012-12-09T09:26:58Z</time>
      </trkpt>
      <trkpt lat="44.52427" lon="0.96447">
        <ele>129.43</ele>
        <time>2012-12-09T09:27:09Z</time>
      </trkpt>
      <trkpt lat="44.52387" lon="0.96292">
        <ele>126.55</ele>
        <time>2012-12-09T09:27:23Z</time>
      </trkpt>
      <trkpt lat="44.52369" lon="0.96255">
        <ele>124.15</ele>
        <time>2012-12-09T09:27:27Z</time>
      </trkpt>
      <trkpt lat="44.52359" lon="0.96242">
        <ele>122.71</ele>
        <time>2012-12-09T09:27:29Z</time>
      </trkpt>
      <trkpt lat="44.52352" lon="0.96195">
        <ele>118.86</ele>
        <time>2012-12-09T09:27:34Z</time>
      </trkpt>
      <trkpt lat="44.52356" lon="0.96173">
        <ele>117.42</ele>
        <time>2012-12-09T09:27:36Z</time>
      </trkpt>
      <trkpt lat="44.5233" lon="0.9609">
        <ele>115.5</ele>
        <time>2012-12-09T09:27:44Z</time>
      </trkpt>
      <trkpt lat="44.52302" lon="0.96063">
        <ele>114.05</ele>
        <time>2012-12-09T09:27:48Z</time>
      </trkpt>
      <trkpt lat="44.5227" lon="0.96048">
        <ele>113.09</ele>
        <time>2012-12-09T09:27:52Z</time>
      </trkpt>
      <trkpt lat="44.52172" lon="0.96001">
        <ele>108.29</ele>
        <time>2012-12-09T09:28:04Z</time>
      </trkpt>
      <trkpt lat="44.52143" lon="0.95974">
        <ele>106.84</ele>
        <time>2012-12-09T09:28:08Z</time>
      </trkpt>
      <trkpt lat="44.52112" lon="0.95933">
        <ele>105.88</ele>
        <time>2012-12-09T09:28:15Z</time>
      </trkpt>
      <trkpt lat="44.5209" lon="0.95911">
        <ele>105.4</ele>
        <time>2012-12-09T09:28:20Z</time>
      </trkpt>
      <trkpt lat="44.52053" lon="0.95844">
        <ele>101.56</ele>
        <time>2012-12-09T09:28:28Z</time>
      </trkpt>
      <trkpt lat="44.5203" lon="0.95788">
        <ele>99.15</ele>
        <time>2012-12-09T09:28:34Z</time>
      </trkpt>
      <trkpt lat="44.52007" lon="0.95678">
        <ele>97.71</ele>
        <time>2012-12-09T09:28:45Z</time>
      </trkpt>
      <trkpt lat="44.52004" lon="0.95657">
        <ele>97.71</ele>
        <time>2012-12-09T09:28:48Z</time>
      </trkpt>
      <trkpt lat="44.52004" lon="0.95553">
        <ele>97.71</ele>
        <time>2012-12-09T09:29:01Z</time>
      </trkpt>
      <trkpt lat="44.52012" lon="0.95448">
        <ele>95.31</ele>
        <time>2012-12-09T09:29:17Z</time>
      </trkpt>
      <trkpt lat="44.52014" lon="0.9542">
        <ele>95.79</ele>
        <time>2012-12-09T09:29:21Z</time>
      </trkpt>
      <trkpt lat="44.5202" lon="0.95314">
        <ele>95.79</ele>
        <time>2012-12-09T09:29:37Z</time>
      </trkpt>
      <trkpt lat="44.52021" lon="0.95307">
        <ele>95.79</ele>
        <time>2012-12-09T09:29:38Z</time>
      </trkpt>
      <trkpt lat="44.52027" lon="0.95251">
        <ele>95.79</ele>
        <time>2012-12-09T09:29:46Z</time>
      </trkpt>
      <trkpt lat="44.52023" lon="0.95183">
        <ele>95.79</ele>
        <time>2012-12-09T09:29:56Z</time>
      </trkpt>
      <trkpt lat="44.52029" lon="0.95143">
        <ele>96.27</ele>
        <time>2012-12-09T09:30:04Z</time>
      </trkpt>
      <trkpt lat="44.52083" lon="0.95066">
        <ele>93.87</ele>
        <time>2012-12-09T09:30:20Z</time>
      </trkpt>
      <trkpt lat="44.52159" lon="0.94982">
        <ele>91.46</ele>
        <time>2012-12-09T09:30:39Z</time>
      </trkpt>
      <trkpt lat="44.52174" lon="0.94963">
        <ele>91.46</ele>
        <time>2012-12-09T09:30:43Z</time>
      </trkpt>
      <trkpt lat="44.52204" lon="0.94935">
        <ele>90.5</ele>
        <time>2012-12-09T09:30:50Z</time>
      </trkpt>
      <trkpt lat="44.52248" lon="0.94919">
        <ele>90.02</ele>
        <time>2012-12-09T09:30:59Z</time>
      </trkpt>
      <trkpt lat="44.52263" lon="0.94937">
        <ele>90.5</ele>
        <time>2012-12-09T09:31:06Z</time>
      </trkpt>
      <trkpt lat="44.52263" lon="0.9494">
        <ele>90.5</ele>
        <time>2012-12-09T09:31:07Z</time>
      </trkpt>
      <trkpt lat="44.52265" lon="0.94947">
        <ele>90.02</ele>
        <time>2012-12-09T09:31:16Z</time>
      </trkpt>
      <trkpt lat="44.52263" lon="0.94926">
        <ele>90.5</ele>
        <time>2012-12-09T09:31:23Z</time>
      </trkpt>
      <trkpt lat="44.52265" lon="0.94918">
        <ele>90.5</ele>
        <time>2012-12-09T09:31:25Z</time>
      </trkpt>
      <trkpt lat="44.52312" lon="0.94902">
        <ele>90.5</ele>
        <time>2012-12-09T09:31:37Z</time>
      </trkpt>
      <trkpt lat="44.52344" lon="0.94893">
        <ele>90.5</ele>
        <time>2012-12-09T09:31:44Z</time>
      </trkpt>
      <trkpt lat="44.5237" lon="0.94861">
        <ele>90.98</ele>
        <time>2012-12-09T09:31:52Z</time>
      </trkpt>
      <trkpt lat="44.52378" lon="0.94826">
        <ele>91.46</ele>
        <time>2012-12-09T09:32:01Z</time>
      </trkpt>
      <trkpt lat="44.52379" lon="0.94807">
        <ele>90.98</ele>
        <time>2012-12-09T09:32:04Z</time>
      </trkpt>
      <trkpt lat="44.52384" lon="0.94746">
        <ele>89.54</ele>
        <time>2012-12-09T09:32:12Z</time>
      </trkpt>
      <trkpt lat="44.52387" lon="0.9473">
        <ele>89.06</ele>
        <time>2012-12-09T09:32:14Z</time>
      </trkpt>
      <trkpt lat="44.52395" lon="0.9471">
        <ele>88.58</ele>
        <time>2012-12-09T09:32:17Z</time>
      </trkpt>
      <trkpt lat="44.52406" lon="0.94692">
        <ele>88.1</ele>
        <time>2012-12-09T09:32:20Z</time>
      </trkpt>
      <trkpt lat="44.52453" lon="0.94651">
        <ele>88.58</ele>
        <time>2012-12-09T09:32:32Z</time>
      </trkpt>
      <trkpt lat="44.52516" lon="0.94604">
        <ele>90.02</ele>
        <time>2012-12-09T09:32:48Z</time>
      </trkpt>
      <trkpt lat="44.5256" lon="0.94567">
        <ele>90.98</ele>
        <time>2012-12-09T09:32:59Z</time>
      </trkpt>
      <trkpt lat="44.52614" lon="0.9448">
        <ele>89.54</ele>
        <time>2012-12-09T09:33:15Z</time>
      </trkpt>
      <trkpt lat="44.52651" lon="0.94412">
        <ele>87.62</ele>
        <time>2012-12-09T09:33:25Z</time>
      </trkpt>
      <trkpt lat="44.52666" lon="0.94396">
        <ele>87.14</ele>
        <time>2012-12-09T09:33:28Z</time>
      </trkpt>
      <trkpt lat="44.52682" lon="0.94368">
        <ele>86.66</ele>
        <time>2012-12-09T09:33:32Z</time>
      </trkpt>
      <trkpt lat="44.52699" lon="0.94262">
        <ele>85.69</ele>
        <time>2012-12-09T09:33:45Z</time>
      </trkpt>
      <trkpt lat="44.52706" lon="0.94205">
        <ele>85.21</ele>
        <time>2012-12-09T09:33:55Z</time>
      </trkpt>
      <trkpt lat="44.52707" lon="0.94178">
        <ele>84.73</ele>
        <time>2012-12-09T09:33:59Z</time>
      </trkpt>
      <trkpt lat="44.52696" lon="0.94118">
        <ele>86.18</ele>
        <time>2012-12-09T09:34:08Z</time>
      </trkpt>
      <trkpt lat="44.52698" lon="0.94085">
        <ele>87.14</ele>
        <time>2012-12-09T09:34:19Z</time>
      </trkpt>
      <trkpt lat="44.52698" lon="0.94084">
        <ele>87.62</ele>
        <time>2012-12-09T09:34:28Z</time>
      </trkpt>
      <trkpt lat="44.52702" lon="0.94081">
        <ele>87.14</ele>
        <time>2012-12-09T09:34:37Z</time>
      </trkpt>
      <trkpt lat="44.52702" lon="0.94081">
        <ele>87.14</ele>
        <time>2012-12-09T09:35:00Z</time>
      </trkpt>
      <trkpt lat="44.52702" lon="0.94082">
        <ele>86.66</ele>
        <time>2012-12-09T09:35:22Z</time>
      </trkpt>
      <trkpt lat="44.52701" lon="0.94083">
        <ele>87.14</ele>
        <time>2012-12-09T09:35:48Z</time>
      </trkpt>
      <trkpt lat="44.527" lon="0.94082">
        <ele>87.14</ele>
        <time>2012-12-09T09:36:10Z</time>
      </trkpt>
      <trkpt lat="44.52676" lon="0.94059">
        <ele>86.18</ele>
        <time>2012-12-09T09:36:23Z</time>
      </trkpt>
      <trkpt lat="44.52626" lon="0.94017">
        <ele>85.21</ele>
        <time>2012-12-09T09:36:37Z</time>
      </trkpt>
      <trkpt lat="44.52537" lon="0.93943">
        <ele>83.77</ele>
        <time>2012-12-09T09:36:57Z</time>
      </trkpt>
      <trkpt lat="44.52469" lon="0.93891">
        <ele>82.33</ele>
        <time>2012-12-09T09:37:12Z</time>
      </trkpt>
      <trkpt lat="44.52401" lon="0.93845">
        <ele>81.85</ele>
        <time>2012-12-09T09:37:27Z</time>
      </trkpt>
      <trkpt lat="44.52391" lon="0.93839">
        <ele>81.37</ele>
        <time>2012-12-09T09:37:29Z</time>
      </trkpt>
      <trkpt lat="44.523" lon="0.93794">
        <ele>80.89</ele>
        <time>2012-12-09T09:37:47Z</time>
      </trkpt>
      <trkpt lat="44.52224" lon="0.9377">
        <ele>80.89</ele>
        <time>2012-12-09T09:38:02Z</time>
      </trkpt>
      <trkpt lat="44.52143" lon="0.93751">
        <ele>82.33</ele>
        <time>2012-12-09T09:38:19Z</time>
      </trkpt>
      <trkpt lat="44.5211" lon="0.93748">
        <ele>87.14</ele>
        <time>2012-12-09T09:38:31Z</time>
      </trkpt>
      <trkpt lat="44.52108" lon="0.93721">
        <ele>90.98</ele>
        <time>2012-12-09T09:38:42Z</time>
      </trkpt>
      <trkpt lat="44.52122" lon="0.9366">
        <ele>91.94</ele>
        <time>2012-12-09T09:38:56Z</time>
      </trkpt>
      <trkpt lat="44.52138" lon="0.93599">
        <ele>96.27</ele>
        <time>2012-12-09T09:39:10Z</time>
      </trkpt>
      <trkpt lat="44.52145" lon="0.93593">
        <ele>97.23</ele>
        <time>2012-12-09T09:39:13Z</time>
      </trkpt>
      <trkpt lat="44.52147" lon="0.93585">
        <ele>97.71</ele>
        <time>2012-12-09T09:39:17Z</time>
      </trkpt>
      <trkpt lat="44.52119" lon="0.93544">
        <ele>97.23</ele>
        <time>2012-12-09T09:39:32Z</time>
      </trkpt>
      <trkpt lat="44.52119" lon="0.93519">
        <ele>96.27</ele>
        <time>2012-12-09T09:39:37Z</time>
      </trkpt>
      <trkpt lat="44.52125" lon="0.93496">
        <ele>95.79</ele>
        <time>2012-12-09T09:39:41Z</time>
      </trkpt>
      <trkpt lat="44.52151" lon="0.93451">
        <ele>94.35</ele>
        <time>2012-12-09T09:39:49Z</time>
      </trkpt>
      <trkpt lat="44.52179" lon="0.93357">
        <ele>90.98</ele>
        <time>2012-12-09T09:40:01Z</time>
      </trkpt>
      <trkpt lat="44.52177" lon="0.93327">
        <ele>90.5</ele>
        <time>2012-12-09T09:40:04Z</time>
      </trkpt>
      <trkpt lat="44.52145" lon="0.9322">
        <ele>88.58</ele>
        <time>2012-12-09T09:40:16Z</time>
      </trkpt>
      <trkpt lat="44.52115" lon="0.93187">
        <ele>88.58</ele>
        <time>2012-12-09T09:40:23Z</time>
      </trkpt>
      <trkpt lat="44.52092" lon="0.93184">
        <ele>88.1</ele>
        <time>2012-12-09T09:40:28Z</time>
      </trkpt>
      <trkpt lat="44.52039" lon="0.93208">
        <ele>87.62</ele>
        <time>2012-12-09T09:40:40Z</time>
      </trkpt>
      <trkpt lat="44.51994" lon="0.93229">
        <ele>89.06</ele>
        <time>2012-12-09T09:40:52Z</time>
      </trkpt>
      <trkpt lat="44.51988" lon="0.93231">
        <ele>90.02</ele>
        <time>2012-12-09T09:40:54Z</time>
      </trkpt>
      <trkpt lat="44.51979" lon="0.93206">
        <ele>92.9</ele>
        <time>2012-12-09T09:41:03Z</time>
      </trkpt>
      <trkpt lat="44.51968" lon="0.93163">
        <ele>93.39</ele>
        <time>2012-12-09T09:41:15Z</time>
      </trkpt>
      <trkpt lat="44.5196" lon="0.93119">
        <ele>91.94</ele>
        <time>2012-12-09T09:41:27Z</time>
      </trkpt>
      <trkpt lat="44.51954" lon="0.9307">
        <ele>90.02</ele>
        <time>2012-12-09T09:41:38Z</time>
      </trkpt>
      <trkpt lat="44.51952" lon="0.93008">
        <ele>86.66</ele>
        <time>2012-12-09T09:41:50Z</time>
      </trkpt>
      <trkpt lat="44.51955" lon="0.92974">
        <ele>87.14</ele>
        <time>2012-12-09T09:41:57Z</time>
      </trkpt>
      <trkpt lat="44.51951" lon="0.92945">
        <ele>87.62</ele>
        <time>2012-12-09T09:42:03Z</time>
      </trkpt>
      <trkpt lat="44.51948" lon="0.92928">
        <ele>87.14</ele>
        <time>2012-12-09T09:42:07Z</time>
      </trkpt>
      <trkpt lat="44.5195" lon="0.92903">
        <ele>89.06</ele>
        <time>2012-12-09T09:42:14Z</time>
      </trkpt>
      <trkpt lat="44.51968" lon="0.92888">
        <ele>90.02</ele>
        <time>2012-12-09T09:42:26Z</time>
      </trkpt>
      <trkpt lat="44.51969" lon="0.92887">
        <ele>90.5</ele>
        <time>2012-12-09T09:42:27Z</time>
      </trkpt>
      <trkpt lat="44.52001" lon="0.92887">
        <ele>96.27</ele>
        <time>2012-12-09T09:42:38Z</time>
      </trkpt>
      <trkpt lat="44.52043" lon="0.92855">
        <ele>103</ele>
        <time>2012-12-09T09:42:49Z</time>
      </trkpt>
      <trkpt lat="44.52053" lon="0.92845">
        <ele>104.44</ele>
        <time>2012-12-09T09:42:52Z</time>
      </trkpt>
      <trkpt lat="44.52062" lon="0.92831">
        <ele>105.4</ele>
        <time>2012-12-09T09:42:55Z</time>
      </trkpt>
      <trkpt lat="44.52088" lon="0.92776">
        <ele>106.36</ele>
        <time>2012-12-09T09:43:07Z</time>
      </trkpt>
      <trkpt lat="44.52101" lon="0.92752">
        <ele>106.36</ele>
        <time>2012-12-09T09:43:12Z</time>
      </trkpt>
      <trkpt lat="44.52108" lon="0.92742">
        <ele>105.88</ele>
        <time>2012-12-09T09:43:14Z</time>
      </trkpt>
      <trkpt lat="44.52141" lon="0.9271">
        <ele>103.96</ele>
        <time>2012-12-09T09:43:24Z</time>
      </trkpt>
      <trkpt lat="44.52146" lon="0.92699">
        <ele>103.48</ele>
        <time>2012-12-09T09:43:27Z</time>
      </trkpt>
      <trkpt lat="44.52151" lon="0.92693">
        <ele>103</ele>
        <time>2012-12-09T09:43:29Z</time>
      </trkpt>
      <trkpt lat="44.52168" lon="0.92678">
        <ele>100.11</ele>
        <time>2012-12-09T09:43:33Z</time>
      </trkpt>
      <trkpt lat="44.5218" lon="0.92657">
        <ele>97.23</ele>
        <time>2012-12-09T09:43:38Z</time>
      </trkpt>
      <trkpt lat="44.52185" lon="0.92632">
        <ele>96.27</ele>
        <time>2012-12-09T09:43:42Z</time>
      </trkpt>
      <trkpt lat="44.52185" lon="0.92617">
        <ele>96.27</ele>
        <time>2012-12-09T09:43:44Z</time>
      </trkpt>
      <trkpt lat="44.52187" lon="0.92603">
        <ele>96.75</ele>
        <time>2012-12-09T09:43:46Z</time>
      </trkpt>
      <trkpt lat="44.52178" lon="0.92539">
        <ele>96.27</ele>
        <time>2012-12-09T09:43:56Z</time>
      </trkpt>
      <trkpt lat="44.52177" lon="0.92535">
        <ele>96.27</ele>
        <time>2012-12-09T09:43:57Z</time>
      </trkpt>
      <trkpt lat="44.52173" lon="0.92501">
        <ele>96.27</ele>
        <time>2012-12-09T09:44:04Z</time>
      </trkpt>
      <trkpt lat="44.52185" lon="0.92486">
        <ele>95.31</ele>
        <time>2012-12-09T09:44:09Z</time>
      </trkpt>
      <trkpt lat="44.52187" lon="0.92477">
        <ele>95.31</ele>
        <time>2012-12-09T09:44:12Z</time>
      </trkpt>
      <trkpt lat="44.52182" lon="0.92462">
        <ele>96.27</ele>
        <time>2012-12-09T09:44:17Z</time>
      </trkpt>
      <trkpt lat="44.52179" lon="0.92447">
        <ele>97.71</ele>
        <time>2012-12-09T09:44:21Z</time>
      </trkpt>
      <trkpt lat="44.5219" lon="0.92402">
        <ele>97.71</ele>
        <time>2012-12-09T09:44:29Z</time>
      </trkpt>
      <trkpt lat="44.52207" lon="0.92396">
        <ele>97.23</ele>
        <time>2012-12-09T09:44:33Z</time>
      </trkpt>
      <trkpt lat="44.52222" lon="0.92397">
        <ele>96.27</ele>
        <time>2012-12-09T09:44:37Z</time>
      </trkpt>
      <trkpt lat="44.52238" lon="0.92406">
        <ele>94.83</ele>
        <time>2012-12-09T09:44:41Z</time>
      </trkpt>
      <trkpt lat="44.52263" lon="0.92434">
        <ele>95.31</ele>
        <time>2012-12-09T09:44:50Z</time>
      </trkpt>
      <trkpt lat="44.52265" lon="0.92439">
        <ele>95.31</ele>
        <time>2012-12-09T09:44:52Z</time>
      </trkpt>
      <trkpt lat="44.52271" lon="0.92445">
        <ele>93.87</ele>
        <time>2012-12-09T09:45:04Z</time>
      </trkpt>
      <trkpt lat="44.52272" lon="0.92446">
        <ele>94.35</ele>
        <time>2012-12-09T09:45:24Z</time>
      </trkpt>
      <trkpt lat="44.52275" lon="0.92448">
        <ele>96.75</ele>
        <time>2012-12-09T09:45:46Z</time>
      </trkpt>
      <trkpt lat="44.52273" lon="0.92449">
        <ele>95.31</ele>
        <time>2012-12-09T09:46:03Z</time>
      </trkpt>
      <trkpt lat="44.52289" lon="0.92467">
        <ele>93.87</ele>
        <time>2012-12-09T09:46:17Z</time>
      </trkpt>
      <trkpt lat="44.52296" lon="0.92473">
        <ele>92.9</ele>
        <time>2012-12-09T09:46:23Z</time>
      </trkpt>
      <trkpt lat="44.52298" lon="0.92479">
        <ele>92.9</ele>
        <time>2012-12-09T09:46:36Z</time>
      </trkpt>
      <trkpt lat="44.52297" lon="0.92478">
        <ele>96.27</ele>
        <time>2012-12-09T09:46:55Z</time>
      </trkpt>
      <trkpt lat="44.52298" lon="0.92477">
        <ele>99.63</ele>
        <time>2012-12-09T09:47:17Z</time>
      </trkpt>
      <trkpt lat="44.52301" lon="0.92476">
        <ele>99.63</ele>
        <time>2012-12-09T09:47:43Z</time>
      </trkpt>
      <trkpt lat="44.52302" lon="0.92475">
        <ele>103.48</ele>
        <time>2012-12-09T09:48:08Z</time>
      </trkpt>
      <trkpt lat="44.52303" lon="0.92475">
        <ele>102.52</ele>
        <time>2012-12-09T09:48:24Z</time>
      </trkpt>
      <trkpt lat="44.52327" lon="0.92494">
        <ele>102.04</ele>
        <time>2012-12-09T09:48:36Z</time>
      </trkpt>
      <trkpt lat="44.52341" lon="0.92479">
        <ele>102.52</ele>
        <time>2012-12-09T09:48:43Z</time>
      </trkpt>
      <trkpt lat="44.52352" lon="0.92457">
        <ele>100.6</ele>
        <time>2012-12-09T09:48:50Z</time>
      </trkpt>
      <trkpt lat="44.52366" lon="0.9246">
        <ele>99.63</ele>
        <time>2012-12-09T09:48:56Z</time>
      </trkpt>
      <trkpt lat="44.5239" lon="0.92481">
        <ele>100.6</ele>
        <time>2012-12-09T09:49:07Z</time>
      </trkpt>
      <trkpt lat="44.52422" lon="0.92497">
        <ele>103.48</ele>
        <time>2012-12-09T09:49:21Z</time>
      </trkpt>
      <trkpt lat="44.52443" lon="0.92507">
        <ele>105.88</ele>
        <time>2012-12-09T09:49:30Z</time>
      </trkpt>
      <trkpt lat="44.52451" lon="0.92512">
        <ele>106.36</ele>
        <time>2012-12-09T09:49:34Z</time>
      </trkpt>
      <trkpt lat="44.52479" lon="0.92509">
        <ele>110.21</ele>
        <time>2012-12-09T09:49:47Z</time>
      </trkpt>
      <trkpt lat="44.52483" lon="0.92509">
        <ele>110.21</ele>
        <time>2012-12-09T09:49:49Z</time>
      </trkpt>
      <trkpt lat="44.52512" lon="0.92528">
        <ele>114.05</ele>
        <time>2012-12-09T09:50:06Z</time>
      </trkpt>
      <trkpt lat="44.52537" lon="0.92548">
        <ele>115.5</ele>
        <time>2012-12-09T09:50:18Z</time>
      </trkpt>
      <trkpt lat="44.52575" lon="0.92578">
        <ele>117.42</ele>
        <time>2012-12-09T09:50:35Z</time>
      </trkpt>
      <trkpt lat="44.52606" lon="0.92584">
        <ele>119.82</ele>
        <time>2012-12-09T09:50:48Z</time>
      </trkpt>
      <trkpt lat="44.52642" lon="0.92578">
        <ele>124.63</ele>
        <time>2012-12-09T09:51:02Z</time>
      </trkpt>
      <trkpt lat="44.52675" lon="0.92578">
        <ele>127.51</ele>
        <time>2012-12-09T09:51:16Z</time>
      </trkpt>
      <trkpt lat="44.52692" lon="0.92578">
        <ele>130.4</ele>
        <time>2012-12-09T09:51:24Z</time>
      </trkpt>
      <trkpt lat="44.52697" lon="0.92571">
        <ele>132.32</ele>
        <time>2012-12-09T09:51:28Z</time>
      </trkpt>
      <trkpt lat="44.52703" lon="0.92547">
        <ele>134.24</ele>
        <time>2012-12-09T09:51:36Z</time>
      </trkpt>
      <trkpt lat="44.52701" lon="0.92529">
        <ele>134.24</ele>
        <time>2012-12-09T09:51:42Z</time>
      </trkpt>
      <trkpt lat="44.527" lon="0.92481">
        <ele>134.24</ele>
        <time>2012-12-09T09:51:55Z</time>
      </trkpt>
      <trkpt lat="44.52721" lon="0.92459">
        <ele>138.09</ele>
        <time>2012-12-09T09:52:07Z</time>
      </trkpt>
      <trkpt lat="44.5275" lon="0.9244">
        <ele>142.41</ele>
        <time>2012-12-09T09:52:21Z</time>
      </trkpt>
      <trkpt lat="44.52755" lon="0.92439">
        <ele>143.37</ele>
        <time>2012-12-09T09:52:23Z</time>
      </trkpt>
      <trkpt lat="44.52778" lon="0.92468">
        <ele>142.89</ele>
        <time>2012-12-09T09:52:35Z</time>
      </trkpt>
      <trkpt lat="44.528" lon="0.92503">
        <ele>141.93</ele>
        <time>2012-12-09T09:52:48Z</time>
      </trkpt>
      <trkpt lat="44.52802" lon="0.92507">
        <ele>142.41</ele>
        <time>2012-12-09T09:53:03Z</time>
      </trkpt>
      <trkpt lat="44.52802" lon="0.9251">
        <ele>142.89</ele>
        <time>2012-12-09T09:53:20Z</time>
      </trkpt>
      <trkpt lat="44.52804" lon="0.92512">
        <ele>143.37</ele>
        <time>2012-12-09T09:53:45Z</time>
      </trkpt>
      <trkpt lat="44.52805" lon="0.92515">
        <ele>143.85</ele>
        <time>2012-12-09T09:54:06Z</time>
      </trkpt>
      <trkpt lat="44.52802" lon="0.92517">
        <ele>144.82</ele>
        <time>2012-12-09T09:54:28Z</time>
      </trkpt>
      <trkpt lat="44.52802" lon="0.92512">
        <ele>146.74</ele>
        <time>2012-12-09T09:54:57Z</time>
      </trkpt>
      <trkpt lat="44.52803" lon="0.92515">
        <ele>144.82</ele>
        <time>2012-12-09T09:55:24Z</time>
      </trkpt>
      <trkpt lat="44.528" lon="0.9251">
        <ele>144.82</ele>
        <time>2012-12-09T09:55:47Z</time>
      </trkpt>
      <trkpt lat="44.52797" lon="0.92509">
        <ele>143.85</ele>
        <time>2012-12-09T09:56:14Z</time>
      </trkpt>
      <trkpt lat="44.52798" lon="0.92507">
        <ele>144.34</ele>
        <time>2012-12-09T09:56:34Z</time>
      </trkpt>
      <trkpt lat="44.52799" lon="0.92508">
        <ele>147.7</ele>
        <time>2012-12-09T09:56:55Z</time>
      </trkpt>
      <trkpt lat="44.52798" lon="0.92509">
        <ele>149.62</ele>
        <time>2012-12-09T09:57:18Z</time>
      </trkpt>
      <trkpt lat="44.52801" lon="0.92507">
        <ele>147.22</ele>
        <time>2012-12-09T09:57:45Z</time>
      </trkpt>
      <trkpt lat="44.52802" lon="0.92509">
        <ele>145.78</ele>
        <time>2012-12-09T09:58:15Z</time>
      </trkpt>
      <trkpt lat="44.52797" lon="0.92508">
        <ele>147.7</ele>
        <time>2012-12-09T09:58:40Z</time>
      </trkpt>
      <trkpt lat="44.52795" lon="0.9251">
        <ele>142.41</ele>
        <time>2012-12-09T09:59:07Z</time>
      </trkpt>
      <trkpt lat="44.52801" lon="0.92512">
        <ele>144.34</ele>
        <time>2012-12-09T09:59:31Z</time>
      </trkpt>
      <trkpt lat="44.52804" lon="0.92511">
        <ele>141.45</ele>
        <time>2012-12-09T09:59:55Z</time>
      </trkpt>
      <trkpt lat="44.52806" lon="0.92511">
        <ele>142.89</ele>
        <time>2012-12-09T10:00:15Z</time>
      </trkpt>
      <trkpt lat="44.52806" lon="0.92512">
        <ele>147.22</ele>
        <time>2012-12-09T10:00:34Z</time>
      </trkpt>
      <trkpt lat="44.52807" lon="0.92511">
        <ele>148.18</ele>
        <time>2012-12-09T10:00:45Z</time>
      </trkpt>
      <trkpt lat="44.52823" lon="0.92526">
        <ele>145.78</ele>
        <time>2012-12-09T10:00:57Z</time>
      </trkpt>
      <trkpt lat="44.52851" lon="0.92564">
        <ele>145.3</ele>
        <time>2012-12-09T10:01:11Z</time>
      </trkpt>
      <trkpt lat="44.52875" lon="0.92619">
        <ele>141.93</ele>
        <time>2012-12-09T10:01:24Z</time>
      </trkpt>
      <trkpt lat="44.52903" lon="0.92645">
        <ele>141.93</ele>
        <time>2012-12-09T10:01:35Z</time>
      </trkpt>
      <trkpt lat="44.5293" lon="0.92668">
        <ele>143.85</ele>
        <time>2012-12-09T10:01:45Z</time>
      </trkpt>
      <trkpt lat="44.52932" lon="0.92672">
        <ele>143.37</ele>
        <time>2012-12-09T10:01:46Z</time>
      </trkpt>
      <trkpt lat="44.52941" lon="0.92686">
        <ele>142.89</ele>
        <time>2012-12-09T10:01:49Z</time>
      </trkpt>
      <trkpt lat="44.52952" lon="0.9269">
        <ele>142.89</ele>
        <time>2012-12-09T10:01:53Z</time>
      </trkpt>
      <trkpt lat="44.52996" lon="0.92683">
        <ele>145.78</ele>
        <time>2012-12-09T10:02:07Z</time>
      </trkpt>
      <trkpt lat="44.53041" lon="0.92686">
        <ele>149.14</ele>
        <time>2012-12-09T10:02:20Z</time>
      </trkpt>
      <trkpt lat="44.53043" lon="0.92687">
        <ele>149.62</ele>
        <time>2012-12-09T10:02:21Z</time>
      </trkpt>
      <trkpt lat="44.53063" lon="0.92682">
        <ele>150.1</ele>
        <time>2012-12-09T10:02:30Z</time>
      </trkpt>
      <trkpt lat="44.53069" lon="0.92691">
        <ele>146.74</ele>
        <time>2012-12-09T10:02:39Z</time>
      </trkpt>
      <trkpt lat="44.53069" lon="0.92692">
        <ele>146.26</ele>
        <time>2012-12-09T10:02:57Z</time>
      </trkpt>
      <trkpt lat="44.53069" lon="0.9269">
        <ele>148.66</ele>
        <time>2012-12-09T10:03:17Z</time>
      </trkpt>
      <trkpt lat="44.53069" lon="0.92692">
        <ele>148.18</ele>
        <time>2012-12-09T10:03:34Z</time>
      </trkpt>
      <trkpt lat="44.53065" lon="0.92703">
        <ele>147.7</ele>
        <time>2012-12-09T10:03:39Z</time>
      </trkpt>
      <trkpt lat="44.53055" lon="0.92726">
        <ele>146.74</ele>
        <time>2012-12-09T10:03:45Z</time>
      </trkpt>
      <trkpt lat="44.5301" lon="0.92793">
        <ele>143.37</ele>
        <time>2012-12-09T10:03:59Z</time>
      </trkpt>
      <trkpt lat="44.52992" lon="0.92834">
        <ele>141.93</ele>
        <time>2012-12-09T10:04:05Z</time>
      </trkpt>
      <trkpt lat="44.52977" lon="0.92918">
        <ele>139.05</ele>
        <time>2012-12-09T10:04:18Z</time>
      </trkpt>
      <trkpt lat="44.52966" lon="0.92976">
        <ele>137.61</ele>
        <time>2012-12-09T10:04:28Z</time>
      </trkpt>
      <trkpt lat="44.52954" lon="0.93019">
        <ele>137.61</ele>
        <time>2012-12-09T10:04:35Z</time>
      </trkpt>
      <trkpt lat="44.52935" lon="0.93033">
        <ele>136.64</ele>
        <time>2012-12-09T10:04:40Z</time>
      </trkpt>
      <trkpt lat="44.52913" lon="0.9303">
        <ele>134.72</ele>
        <time>2012-12-09T10:04:44Z</time>
      </trkpt>
      <trkpt lat="44.52815" lon="0.93016">
        <ele>133.28</ele>
        <time>2012-12-09T10:05:02Z</time>
      </trkpt>
      <trkpt lat="44.52802" lon="0.93019">
        <ele>133.28</ele>
        <time>2012-12-09T10:05:05Z</time>
      </trkpt>
      <trkpt lat="44.52785" lon="0.93057">
        <ele>131.36</ele>
        <time>2012-12-09T10:05:12Z</time>
      </trkpt>
      <trkpt lat="44.52781" lon="0.93082">
        <ele>129.92</ele>
        <time>2012-12-09T10:05:15Z</time>
      </trkpt>
      <trkpt lat="44.52791" lon="0.93143">
        <ele>127.51</ele>
        <time>2012-12-09T10:05:22Z</time>
      </trkpt>
      <trkpt lat="44.52745" lon="0.93264">
        <ele>123.19</ele>
        <time>2012-12-09T10:05:36Z</time>
      </trkpt>
      <trkpt lat="44.5272" lon="0.9331">
        <ele>122.22</ele>
        <time>2012-12-09T10:05:43Z</time>
      </trkpt>
      <trkpt lat="44.52712" lon="0.93333">
        <ele>121.26</ele>
        <time>2012-12-09T10:05:47Z</time>
      </trkpt>
      <trkpt lat="44.5272" lon="0.93365">
        <ele>119.34</ele>
        <time>2012-12-09T10:05:52Z</time>
      </trkpt>
      <trkpt lat="44.52724" lon="0.93374">
        <ele>118.86</ele>
        <time>2012-12-09T10:05:54Z</time>
      </trkpt>
      <trkpt lat="44.52732" lon="0.93452">
        <ele>113.57</ele>
        <time>2012-12-09T10:06:02Z</time>
      </trkpt>
      <trkpt lat="44.52755" lon="0.93611">
        <ele>102.52</ele>
        <time>2012-12-09T10:06:12Z</time>
      </trkpt>
      <trkpt lat="44.52759" lon="0.93739">
        <ele>96.75</ele>
        <time>2012-12-09T10:06:21Z</time>
      </trkpt>
      <trkpt lat="44.52761" lon="0.9377">
        <ele>96.27</ele>
        <time>2012-12-09T10:06:27Z</time>
      </trkpt>
      <trkpt lat="44.52751" lon="0.93858">
        <ele>93.39</ele>
        <time>2012-12-09T10:06:39Z</time>
      </trkpt>
      <trkpt lat="44.52749" lon="0.93872">
        <ele>92.42</ele>
        <time>2012-12-09T10:06:41Z</time>
      </trkpt>
      <trkpt lat="44.52761" lon="0.9389">
        <ele>92.9</ele>
        <time>2012-12-09T10:06:45Z</time>
      </trkpt>
      <trkpt lat="44.52854" lon="0.93924">
        <ele>94.83</ele>
        <time>2012-12-09T10:07:05Z</time>
      </trkpt>
      <trkpt lat="44.5293" lon="0.93957">
        <ele>94.35</ele>
        <time>2012-12-09T10:07:20Z</time>
      </trkpt>
      <trkpt lat="44.53028" lon="0.94007">
        <ele>91.94</ele>
        <time>2012-12-09T10:07:36Z</time>
      </trkpt>
      <trkpt lat="44.53049" lon="0.94022">
        <ele>91.94</ele>
        <time>2012-12-09T10:07:40Z</time>
      </trkpt>
      <trkpt lat="44.53064" lon="0.94021">
        <ele>92.9</ele>
        <time>2012-12-09T10:07:47Z</time>
      </trkpt>
      <trkpt lat="44.53065" lon="0.94017">
        <ele>92.9</ele>
        <time>2012-12-09T10:07:48Z</time>
      </trkpt>
      <trkpt lat="44.53087" lon="0.93954">
        <ele>98.19</ele>
        <time>2012-12-09T10:08:04Z</time>
      </trkpt>
      <trkpt lat="44.53109" lon="0.93881">
        <ele>101.08</ele>
        <time>2012-12-09T10:08:20Z</time>
      </trkpt>
      <trkpt lat="44.53121" lon="0.93812">
        <ele>103</ele>
        <time>2012-12-09T10:08:37Z</time>
      </trkpt>
      <trkpt lat="44.53129" lon="0.93738">
        <ele>103.96</ele>
        <time>2012-12-09T10:08:54Z</time>
      </trkpt>
      <trkpt lat="44.53141" lon="0.93688">
        <ele>106.84</ele>
        <time>2012-12-09T10:09:05Z</time>
      </trkpt>
      <trkpt lat="44.53163" lon="0.9366">
        <ele>109.25</ele>
        <time>2012-12-09T10:09:18Z</time>
      </trkpt>
      <trkpt lat="44.53184" lon="0.93622">
        <ele>111.65</ele>
        <time>2012-12-09T10:09:31Z</time>
      </trkpt>
      <trkpt lat="44.53217" lon="0.93585">
        <ele>116.46</ele>
        <time>2012-12-09T10:09:47Z</time>
      </trkpt>
      <trkpt lat="44.53251" lon="0.93581">
        <ele>119.34</ele>
        <time>2012-12-09T10:10:00Z</time>
      </trkpt>
      <trkpt lat="44.53268" lon="0.93571">
        <ele>121.74</ele>
        <time>2012-12-09T10:10:07Z</time>
      </trkpt>
      <trkpt lat="44.5327" lon="0.93522">
        <ele>127.99</ele>
        <time>2012-12-09T10:10:25Z</time>
      </trkpt>
      <trkpt lat="44.53282" lon="0.93491">
        <ele>134.24</ele>
        <time>2012-12-09T10:10:39Z</time>
      </trkpt>
      <trkpt lat="44.53296" lon="0.93456">
        <ele>138.09</ele>
        <time>2012-12-09T10:10:53Z</time>
      </trkpt>
      <trkpt lat="44.53317" lon="0.93421">
        <ele>141.93</ele>
        <time>2012-12-09T10:11:09Z</time>
      </trkpt>
      <trkpt lat="44.53346" lon="0.93401">
        <ele>147.7</ele>
        <time>2012-12-09T10:11:26Z</time>
      </trkpt>
      <trkpt lat="44.53375" lon="0.93387">
        <ele>153.95</ele>
        <time>2012-12-09T10:11:41Z</time>
      </trkpt>
      <trkpt lat="44.53405" lon="0.9336">
        <ele>155.39</ele>
        <time>2012-12-09T10:11:58Z</time>
      </trkpt>
      <trkpt lat="44.53432" lon="0.93372">
        <ele>153.95</ele>
        <time>2012-12-09T10:12:11Z</time>
      </trkpt>
      <trkpt lat="44.53465" lon="0.93383">
        <ele>152.51</ele>
        <time>2012-12-09T10:12:25Z</time>
      </trkpt>
      <trkpt lat="44.535" lon="0.93365">
        <ele>153.47</ele>
        <time>2012-12-09T10:12:40Z</time>
      </trkpt>
      <trkpt lat="44.53533" lon="0.93366">
        <ele>155.39</ele>
        <time>2012-12-09T10:12:53Z</time>
      </trkpt>
      <trkpt lat="44.53557" lon="0.93363">
        <ele>157.31</ele>
        <time>2012-12-09T10:13:03Z</time>
      </trkpt>
      <trkpt lat="44.53596" lon="0.93325">
        <ele>159.24</ele>
        <time>2012-12-09T10:13:18Z</time>
      </trkpt>
      <trkpt lat="44.53607" lon="0.93315">
        <ele>158.75</ele>
        <time>2012-12-09T10:13:29Z</time>
      </trkpt>
      <trkpt lat="44.53607" lon="0.93315">
        <ele>156.83</ele>
        <time>2012-12-09T10:13:55Z</time>
      </trkpt>
      <trkpt lat="44.53607" lon="0.93316">
        <ele>157.79</ele>
        <time>2012-12-09T10:14:11Z</time>
      </trkpt>
      <trkpt lat="44.53606" lon="0.93315">
        <ele>157.79</ele>
        <time>2012-12-09T10:14:34Z</time>
      </trkpt>
      <trkpt lat="44.53607" lon="0.93316">
        <ele>158.75</ele>
        <time>2012-12-09T10:14:57Z</time>
      </trkpt>
      <trkpt lat="44.53607" lon="0.93315">
        <ele>160.2</ele>
        <time>2012-12-09T10:15:18Z</time>
      </trkpt>
      <trkpt lat="44.53607" lon="0.93315">
        <ele>158.75</ele>
        <time>2012-12-09T10:15:39Z</time>
      </trkpt>
      <trkpt lat="44.53608" lon="0.93315">
        <ele>157.79</ele>
        <time>2012-12-09T10:16:17Z</time>
      </trkpt>
      <trkpt lat="44.53606" lon="0.93316">
        <ele>157.79</ele>
        <time>2012-12-09T10:16:36Z</time>
      </trkpt>
      <trkpt lat="44.53607" lon="0.93317">
        <ele>155.87</ele>
        <time>2012-12-09T10:17:09Z</time>
      </trkpt>
      <trkpt lat="44.53606" lon="0.93315">
        <ele>157.31</ele>
        <time>2012-12-09T10:17:43Z</time>
      </trkpt>
      <trkpt lat="44.53607" lon="0.93316">
        <ele>158.27</ele>
        <time>2012-12-09T10:18:07Z</time>
      </trkpt>
      <trkpt lat="44.53608" lon="0.93317">
        <ele>157.79</ele>
        <time>2012-12-09T10:18:40Z</time>
      </trkpt>
      <trkpt lat="44.53606" lon="0.93316">
        <ele>157.31</ele>
        <time>2012-12-09T10:19:08Z</time>
      </trkpt>
      <trkpt lat="44.53613" lon="0.93309">
        <ele>157.31</ele>
        <time>2012-12-09T10:19:23Z</time>
      </trkpt>
      <trkpt lat="44.53631" lon="0.93292">
        <ele>157.31</ele>
        <time>2012-12-09T10:19:30Z</time>
      </trkpt>
      <trkpt lat="44.53651" lon="0.93304">
        <ele>156.83</ele>
        <time>2012-12-09T10:19:36Z</time>
      </trkpt>
      <trkpt lat="44.53681" lon="0.9336">
        <ele>155.39</ele>
        <time>2012-12-09T10:19:48Z</time>
      </trkpt>
      <trkpt lat="44.53696" lon="0.93394">
        <ele>153.47</ele>
        <time>2012-12-09T10:19:52Z</time>
      </trkpt>
      <trkpt lat="44.53718" lon="0.9339">
        <ele>152.03</ele>
        <time>2012-12-09T10:19:58Z</time>
      </trkpt>
      <trkpt lat="44.53751" lon="0.93329">
        <ele>152.51</ele>
        <time>2012-12-09T10:20:12Z</time>
      </trkpt>
      <trkpt lat="44.53761" lon="0.93273">
        <ele>153.95</ele>
        <time>2012-12-09T10:20:25Z</time>
      </trkpt>
      <trkpt lat="44.53754" lon="0.93221">
        <ele>156.35</ele>
        <time>2012-12-09T10:20:37Z</time>
      </trkpt>
      <trkpt lat="44.53796" lon="0.93117">
        <ele>156.83</ele>
        <time>2012-12-09T10:20:57Z</time>
      </trkpt>
      <trkpt lat="44.53841" lon="0.9302">
        <ele>156.35</ele>
        <time>2012-12-09T10:21:14Z</time>
      </trkpt>
      <trkpt lat="44.53846" lon="0.93008">
        <ele>156.35</ele>
        <time>2012-12-09T10:21:16Z</time>
      </trkpt>
      <trkpt lat="44.53898" lon="0.92909">
        <ele>156.83</ele>
        <time>2012-12-09T10:21:34Z</time>
      </trkpt>
      <trkpt lat="44.53943" lon="0.92827">
        <ele>160.2</ele>
        <time>2012-12-09T10:21:51Z</time>
      </trkpt>
      <trkpt lat="44.53976" lon="0.92767">
        <ele>160.68</ele>
        <time>2012-12-09T10:22:05Z</time>
      </trkpt>
      <trkpt lat="44.53997" lon="0.9273">
        <ele>161.16</ele>
        <time>2012-12-09T10:22:14Z</time>
      </trkpt>
      <trkpt lat="44.54021" lon="0.92692">
        <ele>161.16</ele>
        <time>2012-12-09T10:22:24Z</time>
      </trkpt>
      <trkpt lat="44.54041" lon="0.92694">
        <ele>159.24</ele>
        <time>2012-12-09T10:22:29Z</time>
      </trkpt>
      <trkpt lat="44.54052" lon="0.92696">
        <ele>158.75</ele>
        <time>2012-12-09T10:22:31Z</time>
      </trkpt>
      <trkpt lat="44.54094" lon="0.92724">
        <ele>152.99</ele>
        <time>2012-12-09T10:22:39Z</time>
      </trkpt>
      <trkpt lat="44.54114" lon="0.92732">
        <ele>150.1</ele>
        <time>2012-12-09T10:22:43Z</time>
      </trkpt>
      <trkpt lat="44.5414" lon="0.92748">
        <ele>148.18</ele>
        <time>2012-12-09T10:22:48Z</time>
      </trkpt>
      <trkpt lat="44.54224" lon="0.9278">
        <ele>142.89</ele>
        <time>2012-12-09T10:23:00Z</time>
      </trkpt>
      <trkpt lat="44.5425" lon="0.92793">
        <ele>144.34</ele>
        <time>2012-12-09T10:23:08Z</time>
      </trkpt>
      <trkpt lat="44.54281" lon="0.92806">
        <ele>144.82</ele>
        <time>2012-12-09T10:23:20Z</time>
      </trkpt>
      <trkpt lat="44.54322" lon="0.92816">
        <ele>145.3</ele>
        <time>2012-12-09T10:23:33Z</time>
      </trkpt>
      <trkpt lat="44.54364" lon="0.92822">
        <ele>143.85</ele>
        <time>2012-12-09T10:23:44Z</time>
      </trkpt>
      <trkpt lat="44.5441" lon="0.92832">
        <ele>141.45</ele>
        <time>2012-12-09T10:23:56Z</time>
      </trkpt>
      <trkpt lat="44.54413" lon="0.92833">
        <ele>141.45</ele>
        <time>2012-12-09T10:23:57Z</time>
      </trkpt>
      <trkpt lat="44.54415" lon="0.92863">
        <ele>140.01</ele>
        <time>2012-12-09T10:24:05Z</time>
      </trkpt>
      <trkpt lat="44.54408" lon="0.92886">
        <ele>139.53</ele>
        <time>2012-12-09T10:24:09Z</time>
      </trkpt>
      <trkpt lat="44.54382" lon="0.92941">
        <ele>137.61</ele>
        <time>2012-12-09T10:24:17Z</time>
      </trkpt>
      <trkpt lat="44.54371" lon="0.92962">
        <ele>136.64</ele>
        <time>2012-12-09T10:24:20Z</time>
      </trkpt>
      <trkpt lat="44.54362" lon="0.93002">
        <ele>134.24</ele>
        <time>2012-12-09T10:24:25Z</time>
      </trkpt>
      <trkpt lat="44.54368" lon="0.93152">
        <ele>125.11</ele>
        <time>2012-12-09T10:24:40Z</time>
      </trkpt>
      <trkpt lat="44.54378" lon="0.93199">
        <ele>124.15</ele>
        <time>2012-12-09T10:24:46Z</time>
      </trkpt>
      <trkpt lat="44.54398" lon="0.93261">
        <ele>122.22</ele>
        <time>2012-12-09T10:24:54Z</time>
      </trkpt>
      <trkpt lat="44.544" lon="0.93313">
        <ele>120.3</ele>
        <time>2012-12-09T10:25:00Z</time>
      </trkpt>
      <trkpt lat="44.54416" lon="0.93343">
        <ele>118.86</ele>
        <time>2012-12-09T10:25:05Z</time>
      </trkpt>
      <trkpt lat="44.54451" lon="0.93357">
        <ele>117.9</ele>
        <time>2012-12-09T10:25:11Z</time>
      </trkpt>
      <trkpt lat="44.54516" lon="0.93347">
        <ele>110.69</ele>
        <time>2012-12-09T10:25:18Z</time>
      </trkpt>
      <trkpt lat="44.54555" lon="0.93323">
        <ele>106.84</ele>
        <time>2012-12-09T10:25:22Z</time>
      </trkpt>
      <trkpt lat="44.54612" lon="0.9326">
        <ele>106.84</ele>
        <time>2012-12-09T10:25:32Z</time>
      </trkpt>
      <trkpt lat="44.54613" lon="0.93257">
        <ele>107.32</ele>
        <time>2012-12-09T10:25:33Z</time>
      </trkpt>
      <trkpt lat="44.54625" lon="0.93214">
        <ele>109.73</ele>
        <time>2012-12-09T10:25:44Z</time>
      </trkpt>
      <trkpt lat="44.54658" lon="0.93149">
        <ele>111.65</ele>
        <time>2012-12-09T10:25:59Z</time>
      </trkpt>
      <trkpt lat="44.54661" lon="0.93145">
        <ele>111.65</ele>
        <time>2012-12-09T10:26:00Z</time>
      </trkpt>
      <trkpt lat="44.54679" lon="0.93125">
        <ele>111.17</ele>
        <time>2012-12-09T10:26:05Z</time>
      </trkpt>
      <trkpt lat="44.54691" lon="0.93117">
        <ele>110.21</ele>
        <time>2012-12-09T10:26:08Z</time>
      </trkpt>
      <trkpt lat="44.54732" lon="0.93088">
        <ele>109.73</ele>
        <time>2012-12-09T10:26:19Z</time>
      </trkpt>
      <trkpt lat="44.54784" lon="0.93037">
        <ele>109.25</ele>
        <time>2012-12-09T10:26:34Z</time>
      </trkpt>
      <trkpt lat="44.54825" lon="0.92963">
        <ele>113.57</ele>
        <time>2012-12-09T10:26:51Z</time>
      </trkpt>
      <trkpt lat="44.54833" lon="0.92909">
        <ele>118.38</ele>
        <time>2012-12-09T10:27:04Z</time>
      </trkpt>
      <trkpt lat="44.54831" lon="0.92851">
        <ele>117.42</ele>
        <time>2012-12-09T10:27:19Z</time>
      </trkpt>
      <trkpt lat="44.54854" lon="0.92773">
        <ele>118.38</ele>
        <time>2012-12-09T10:27:37Z</time>
      </trkpt>
      <trkpt lat="44.54892" lon="0.9274">
        <ele>118.86</ele>
        <time>2012-12-09T10:27:50Z</time>
      </trkpt>
      <trkpt lat="44.54919" lon="0.92683">
        <ele>118.38</ele>
        <time>2012-12-09T10:28:04Z</time>
      </trkpt>
      <trkpt lat="44.54938" lon="0.9262">
        <ele>118.86</ele>
        <time>2012-12-09T10:28:19Z</time>
      </trkpt>
      <trkpt lat="44.54955" lon="0.9257">
        <ele>118.86</ele>
        <time>2012-12-09T10:28:30Z</time>
      </trkpt>
      <trkpt lat="44.54977" lon="0.92509">
        <ele>118.86</ele>
        <time>2012-12-09T10:28:43Z</time>
      </trkpt>
      <trkpt lat="44.54991" lon="0.9246">
        <ele>118.86</ele>
        <time>2012-12-09T10:28:56Z</time>
      </trkpt>
      <trkpt lat="44.55002" lon="0.92407">
        <ele>118.38</ele>
        <time>2012-12-09T10:29:09Z</time>
      </trkpt>
      <trkpt lat="44.54998" lon="0.9236">
        <ele>117.42</ele>
        <time>2012-12-09T10:29:20Z</time>
      </trkpt>
      <trkpt lat="44.54994" lon="0.92345">
        <ele>116.94</ele>
        <time>2012-12-09T10:29:24Z</time>
      </trkpt>
      <trkpt lat="44.54993" lon="0.92286">
        <ele>115.98</ele>
        <time>2012-12-09T10:29:37Z</time>
      </trkpt>
      <trkpt lat="44.54992" lon="0.92225">
        <ele>115.01</ele>
        <time>2012-12-09T10:29:50Z</time>
      </trkpt>
      <trkpt lat="44.54991" lon="0.92219">
        <ele>115.01</ele>
        <time>2012-12-09T10:29:52Z</time>
      </trkpt>
      <trkpt lat="44.54989" lon="0.92174">
        <ele>113.57</ele>
        <time>2012-12-09T10:30:04Z</time>
      </trkpt>
      <trkpt lat="44.54987" lon="0.92161">
        <ele>114.53</ele>
        <time>2012-12-09T10:30:14Z</time>
      </trkpt>
      <trkpt lat="44.54987" lon="0.92159">
        <ele>115.98</ele>
        <time>2012-12-09T10:30:41Z</time>
      </trkpt>
      <trkpt lat="44.54987" lon="0.92157">
        <ele>115.98</ele>
        <time>2012-12-09T10:30:55Z</time>
      </trkpt>
      <trkpt lat="44.54988" lon="0.9211">
        <ele>114.05</ele>
        <time>2012-12-09T10:31:09Z</time>
      </trkpt>
      <trkpt lat="44.54995" lon="0.92101">
        <ele>114.05</ele>
        <time>2012-12-09T10:31:14Z</time>
      </trkpt>
      <trkpt lat="44.55007" lon="0.92106">
        <ele>115.01</ele>
        <time>2012-12-09T10:31:22Z</time>
      </trkpt>
      <trkpt lat="44.55016" lon="0.92128">
        <ele>115.98</ele>
        <time>2012-12-09T10:31:28Z</time>
      </trkpt>
      <trkpt lat="44.55027" lon="0.92156">
        <ele>116.46</ele>
        <time>2012-12-09T10:31:35Z</time>
      </trkpt>
      <trkpt lat="44.55035" lon="0.92177">
        <ele>115.98</ele>
        <time>2012-12-09T10:31:46Z</time>
      </trkpt>
      <trkpt lat="44.55045" lon="0.92197">
        <ele>115.98</ele>
        <time>2012-12-09T10:31:53Z</time>
      </trkpt>
      <trkpt lat="44.55074" lon="0.92215">
        <ele>117.9</ele>
        <time>2012-12-09T10:32:04Z</time>
      </trkpt>
      <trkpt lat="44.55109" lon="0.92235">
        <ele>118.86</ele>
        <time>2012-12-09T10:32:17Z</time>
      </trkpt>
      <trkpt lat="44.5514" lon="0.92248">
        <ele>119.34</ele>
        <time>2012-12-09T10:32:29Z</time>
      </trkpt>
      <trkpt lat="44.55142" lon="0.92249">
        <ele>119.34</ele>
        <time>2012-12-09T10:32:38Z</time>
      </trkpt>
      <trkpt lat="44.55141" lon="0.92249">
        <ele>120.78</ele>
        <time>2012-12-09T10:32:54Z</time>
      </trkpt>
      <trkpt lat="44.55141" lon="0.9225">
        <ele>120.3</ele>
        <time>2012-12-09T10:33:11Z</time>
      </trkpt>
      <trkpt lat="44.55141" lon="0.92249">
        <ele>121.26</ele>
        <time>2012-12-09T10:33:30Z</time>
      </trkpt>
      <trkpt lat="44.55142" lon="0.92249">
        <ele>120.78</ele>
        <time>2012-12-09T10:33:55Z</time>
      </trkpt>
      <trkpt lat="44.55142" lon="0.92248">
        <ele>121.26</ele>
        <time>2012-12-09T10:34:14Z</time>
      </trkpt>
      <trkpt lat="44.55142" lon="0.92251">
        <ele>120.78</ele>
        <time>2012-12-09T10:34:37Z</time>
      </trkpt>
      <trkpt lat="44.55143" lon="0.92251">
        <ele>121.26</ele>
        <time>2012-12-09T10:35:03Z</time>
      </trkpt>
      <trkpt lat="44.55143" lon="0.9225">
        <ele>120.3</ele>
        <time>2012-12-09T10:35:17Z</time>
      </trkpt>
      <trkpt lat="44.55152" lon="0.92241">
        <ele>120.3</ele>
        <time>2012-12-09T10:35:25Z</time>
      </trkpt>
      <trkpt lat="44.55165" lon="0.92222">
        <ele>118.86</ele>
        <time>2012-12-09T10:35:36Z</time>
      </trkpt>
      <trkpt lat="44.55194" lon="0.9224">
        <ele>115.01</ele>
        <time>2012-12-09T10:35:49Z</time>
      </trkpt>
      <trkpt lat="44.55199" lon="0.9225">
        <ele>115.01</ele>
        <time>2012-12-09T10:35:52Z</time>
      </trkpt>
      <trkpt lat="44.55209" lon="0.92248">
        <ele>115.01</ele>
        <time>2012-12-09T10:35:58Z</time>
      </trkpt>
      <trkpt lat="44.55238" lon="0.92227">
        <ele>117.42</ele>
        <time>2012-12-09T10:36:11Z</time>
      </trkpt>
      <trkpt lat="44.55268" lon="0.92203">
        <ele>120.78</ele>
        <time>2012-12-09T10:36:22Z</time>
      </trkpt>
      <trkpt lat="44.55306" lon="0.92164">
        <ele>125.11</ele>
        <time>2012-12-09T10:36:36Z</time>
      </trkpt>
      <trkpt lat="44.55334" lon="0.92122">
        <ele>126.07</ele>
        <time>2012-12-09T10:36:51Z</time>
      </trkpt>
      <trkpt lat="44.55349" lon="0.92091">
        <ele>124.63</ele>
        <time>2012-12-09T10:36:58Z</time>
      </trkpt>
      <trkpt lat="44.55337" lon="0.92057">
        <ele>124.15</ele>
        <time>2012-12-09T10:37:07Z</time>
      </trkpt>
      <trkpt lat="44.55318" lon="0.92017">
        <ele>127.51</ele>
        <time>2012-12-09T10:37:20Z</time>
      </trkpt>
      <trkpt lat="44.55305" lon="0.91987">
        <ele>131.36</ele>
        <time>2012-12-09T10:37:31Z</time>
      </trkpt>
      <trkpt lat="44.55289" lon="0.91949">
        <ele>141.45</ele>
        <time>2012-12-09T10:37:45Z</time>
      </trkpt>
      <trkpt lat="44.55273" lon="0.91915">
        <ele>148.66</ele>
        <time>2012-12-09T10:37:58Z</time>
      </trkpt>
      <trkpt lat="44.55258" lon="0.91883">
        <ele>154.91</ele>
        <time>2012-12-09T10:38:12Z</time>
      </trkpt>
      <trkpt lat="44.55244" lon="0.91855">
        <ele>162.6</ele>
        <time>2012-12-09T10:38:25Z</time>
      </trkpt>
      <trkpt lat="44.5524" lon="0.91812">
        <ele>162.12</ele>
        <time>2012-12-09T10:38:39Z</time>
      </trkpt>
      <trkpt lat="44.55268" lon="0.91778">
        <ele>162.12</ele>
        <time>2012-12-09T10:38:54Z</time>
      </trkpt>
      <trkpt lat="44.55278" lon="0.91761">
        <ele>161.16</ele>
        <time>2012-12-09T10:39:01Z</time>
      </trkpt>
      <trkpt lat="44.55276" lon="0.9174">
        <ele>161.16</ele>
        <time>2012-12-09T10:39:08Z</time>
      </trkpt>
      <trkpt lat="44.55264" lon="0.9171">
        <ele>170.77</ele>
        <time>2012-12-09T10:39:25Z</time>
      </trkpt>
      <trkpt lat="44.55255" lon="0.91687">
        <ele>179.9</ele>
        <time>2012-12-09T10:39:40Z</time>
      </trkpt>
      <trkpt lat="44.55242" lon="0.91661">
        <ele>186.15</ele>
        <time>2012-12-09T10:39:55Z</time>
      </trkpt>
      <trkpt lat="44.55232" lon="0.9163">
        <ele>183.75</ele>
        <time>2012-12-09T10:40:08Z</time>
      </trkpt>
      <trkpt lat="44.55231" lon="0.91619">
        <ele>180.87</ele>
        <time>2012-12-09T10:40:23Z</time>
      </trkpt>
      <trkpt lat="44.55234" lon="0.91625">
        <ele>177.98</ele>
        <time>2012-12-09T10:40:40Z</time>
      </trkpt>
      <trkpt lat="44.55234" lon="0.91626">
        <ele>177.98</ele>
        <time>2012-12-09T10:40:59Z</time>
      </trkpt>
      <trkpt lat="44.55234" lon="0.91624">
        <ele>176.54</ele>
        <time>2012-12-09T10:41:20Z</time>
      </trkpt>
      <trkpt lat="44.55232" lon="0.9163">
        <ele>175.1</ele>
        <time>2012-12-09T10:41:40Z</time>
      </trkpt>
      <trkpt lat="44.55232" lon="0.91631">
        <ele>174.62</ele>
        <time>2012-12-09T10:42:04Z</time>
      </trkpt>
      <trkpt lat="44.55234" lon="0.9163">
        <ele>175.1</ele>
        <time>2012-12-09T10:42:21Z</time>
      </trkpt>
      <trkpt lat="44.55235" lon="0.91625">
        <ele>173.66</ele>
        <time>2012-12-09T10:42:41Z</time>
      </trkpt>
      <trkpt lat="44.55231" lon="0.91624">
        <ele>175.1</ele>
        <time>2012-12-09T10:43:06Z</time>
      </trkpt>
      <trkpt lat="44.55232" lon="0.9162">
        <ele>175.58</ele>
        <time>2012-12-09T10:43:25Z</time>
      </trkpt>
      <trkpt lat="44.55236" lon="0.91605">
        <ele>174.62</ele>
        <time>2012-12-09T10:43:37Z</time>
      </trkpt>
      <trkpt lat="44.55237" lon="0.91576">
        <ele>172.21</ele>
        <time>2012-12-09T10:43:52Z</time>
      </trkpt>
      <trkpt lat="44.55225" lon="0.91548">
        <ele>172.69</ele>
        <time>2012-12-09T10:44:02Z</time>
      </trkpt>
      <trkpt lat="44.55234" lon="0.91466">
        <ele>164.52</ele>
        <time>2012-12-09T10:44:10Z</time>
      </trkpt>
      <trkpt lat="44.55236" lon="0.91453">
        <ele>163.56</ele>
        <time>2012-12-09T10:44:11Z</time>
      </trkpt>
      <trkpt lat="44.55249" lon="0.91361">
        <ele>163.56</ele>
        <time>2012-12-09T10:44:21Z</time>
      </trkpt>
      <trkpt lat="44.55252" lon="0.91341">
        <ele>164.52</ele>
        <time>2012-12-09T10:44:24Z</time>
      </trkpt>
      <trkpt lat="44.55262" lon="0.91322">
        <ele>165</ele>
        <time>2012-12-09T10:44:28Z</time>
      </trkpt>
      <trkpt lat="44.5527" lon="0.91314">
        <ele>164.52</ele>
        <time>2012-12-09T10:44:30Z</time>
      </trkpt>
      <trkpt lat="44.5528" lon="0.91291">
        <ele>165</ele>
        <time>2012-12-09T10:44:34Z</time>
      </trkpt>
      <trkpt lat="44.55294" lon="0.91258">
        <ele>165.96</ele>
        <time>2012-12-09T10:44:40Z</time>
      </trkpt>
      <trkpt lat="44.55305" lon="0.91222">
        <ele>168.37</ele>
        <time>2012-12-09T10:44:46Z</time>
      </trkpt>
      <trkpt lat="44.55307" lon="0.9119">
        <ele>169.81</ele>
        <time>2012-12-09T10:44:51Z</time>
      </trkpt>
      <trkpt lat="44.55304" lon="0.91088">
        <ele>164.04</ele>
        <time>2012-12-09T10:45:03Z</time>
      </trkpt>
      <trkpt lat="44.55301" lon="0.9106">
        <ele>163.56</ele>
        <time>2012-12-09T10:45:07Z</time>
      </trkpt>
      <trkpt lat="44.55291" lon="0.91032">
        <ele>161.16</ele>
        <time>2012-12-09T10:45:11Z</time>
      </trkpt>
      <trkpt lat="44.55279" lon="0.90999">
        <ele>160.2</ele>
        <time>2012-12-09T10:45:16Z</time>
      </trkpt>
      <trkpt lat="44.55274" lon="0.90968">
        <ele>158.27</ele>
        <time>2012-12-09T10:45:20Z</time>
      </trkpt>
      <trkpt lat="44.55274" lon="0.90953">
        <ele>157.31</ele>
        <time>2012-12-09T10:45:22Z</time>
      </trkpt>
      <trkpt lat="44.55277" lon="0.90923">
        <ele>157.31</ele>
        <time>2012-12-09T10:45:26Z</time>
      </trkpt>
      <trkpt lat="44.55282" lon="0.909">
        <ele>158.27</ele>
        <time>2012-12-09T10:45:30Z</time>
      </trkpt>
      <trkpt lat="44.55294" lon="0.90855">
        <ele>159.72</ele>
        <time>2012-12-09T10:45:37Z</time>
      </trkpt>
      <trkpt lat="44.55304" lon="0.90835">
        <ele>160.68</ele>
        <time>2012-12-09T10:45:41Z</time>
      </trkpt>
      <trkpt lat="44.55347" lon="0.90795">
        <ele>168.37</ele>
        <time>2012-12-09T10:45:55Z</time>
      </trkpt>
      <trkpt lat="44.55353" lon="0.90774">
        <ele>170.29</ele>
        <time>2012-12-09T10:45:59Z</time>
      </trkpt>
      <trkpt lat="44.55352" lon="0.90756">
        <ele>171.73</ele>
        <time>2012-12-09T10:46:02Z</time>
      </trkpt>
      <trkpt lat="44.55347" lon="0.90726">
        <ele>174.14</ele>
        <time>2012-12-09T10:46:07Z</time>
      </trkpt>
      <trkpt lat="44.55334" lon="0.90647">
        <ele>177.02</ele>
        <time>2012-12-09T10:46:20Z</time>
      </trkpt>
      <trkpt lat="44.5535" lon="0.90619">
        <ele>176.54</ele>
        <time>2012-12-09T10:46:28Z</time>
      </trkpt>
      <trkpt lat="44.5539" lon="0.90614">
        <ele>173.66</ele>
        <time>2012-12-09T10:46:35Z</time>
      </trkpt>
      <trkpt lat="44.55409" lon="0.90597">
        <ele>171.73</ele>
        <time>2012-12-09T10:46:40Z</time>
      </trkpt>
      <trkpt lat="44.55404" lon="0.90502">
        <ele>171.25</ele>
        <time>2012-12-09T10:46:55Z</time>
      </trkpt>
      <trkpt lat="44.55402" lon="0.90444">
        <ele>172.21</ele>
        <time>2012-12-09T10:47:04Z</time>
      </trkpt>
      <trkpt lat="44.554" lon="0.90416">
        <ele>174.14</ele>
        <time>2012-12-09T10:47:09Z</time>
      </trkpt>
      <trkpt lat="44.55404" lon="0.90406">
        <ele>175.1</ele>
        <time>2012-12-09T10:47:18Z</time>
      </trkpt>
      <trkpt lat="44.55403" lon="0.90405">
        <ele>174.14</ele>
        <time>2012-12-09T10:47:45Z</time>
      </trkpt>
      <trkpt lat="44.55404" lon="0.90407">
        <ele>174.62</ele>
        <time>2012-12-09T10:48:06Z</time>
      </trkpt>
      <trkpt lat="44.55404" lon="0.90406">
        <ele>175.1</ele>
        <time>2012-12-09T10:48:25Z</time>
      </trkpt>
      <trkpt lat="44.55404" lon="0.90405">
        <ele>174.62</ele>
        <time>2012-12-09T10:48:40Z</time>
      </trkpt>
      <trkpt lat="44.55438" lon="0.9041">
        <ele>172.69</ele>
        <time>2012-12-09T10:48:52Z</time>
      </trkpt>
      <trkpt lat="44.55515" lon="0.90438">
        <ele>172.69</ele>
        <time>2012-12-09T10:49:08Z</time>
      </trkpt>
      <trkpt lat="44.55577" lon="0.90472">
        <ele>176.54</ele>
        <time>2012-12-09T10:49:23Z</time>
      </trkpt>
      <trkpt lat="44.55608" lon="0.90483">
        <ele>177.98</ele>
        <time>2012-12-09T10:49:31Z</time>
      </trkpt>
      <trkpt lat="44.55667" lon="0.90465">
        <ele>181.83</ele>
        <time>2012-12-09T10:49:46Z</time>
      </trkpt>
      <trkpt lat="44.55727" lon="0.90433">
        <ele>185.67</ele>
        <time>2012-12-09T10:50:03Z</time>
      </trkpt>
      <trkpt lat="44.5578" lon="0.90439">
        <ele>189.04</ele>
        <time>2012-12-09T10:50:17Z</time>
      </trkpt>
      <trkpt lat="44.55834" lon="0.90456">
        <ele>191.92</ele>
        <time>2012-12-09T10:50:32Z</time>
      </trkpt>
      <trkpt lat="44.55886" lon="0.90473">
        <ele>196.25</ele>
        <time>2012-12-09T10:50:46Z</time>
      </trkpt>
      <trkpt lat="44.55937" lon="0.90491">
        <ele>200.09</ele>
        <time>2012-12-09T10:51:03Z</time>
      </trkpt>
      <trkpt lat="44.55991" lon="0.90509">
        <ele>202.01</ele>
        <time>2012-12-09T10:51:20Z</time>
      </trkpt>
      <trkpt lat="44.56041" lon="0.90526">
        <ele>204.42</ele>
        <time>2012-12-09T10:51:36Z</time>
      </trkpt>
      <trkpt lat="44.56108" lon="0.90547">
        <ele>208.74</ele>
        <time>2012-12-09T10:51:56Z</time>
      </trkpt>
      <trkpt lat="44.56158" lon="0.90564">
        <ele>210.67</ele>
        <time>2012-12-09T10:52:12Z</time>
      </trkpt>
      <trkpt lat="44.56159" lon="0.90572">
        <ele>210.67</ele>
        <time>2012-12-09T10:52:16Z</time>
      </trkpt>
      <trkpt lat="44.56156" lon="0.90581">
        <ele>210.19</ele>
        <time>2012-12-09T10:52:22Z</time>
      </trkpt>
      <trkpt lat="44.56155" lon="0.90584">
        <ele>209.7</ele>
        <time>2012-12-09T10:52:34Z</time>
      </trkpt>
      <trkpt lat="44.56155" lon="0.90584">
        <ele>209.22</ele>
        <time>2012-12-09T10:53:03Z</time>
      </trkpt>
      <trkpt lat="44.56155" lon="0.90584">
        <ele>209.7</ele>
        <time>2012-12-09T10:53:25Z</time>
      </trkpt>
      <trkpt lat="44.56154" lon="0.90583">
        <ele>209.7</ele>
        <time>2012-12-09T10:53:44Z</time>
      </trkpt>
      <trkpt lat="44.56155" lon="0.90584">
        <ele>209.22</ele>
        <time>2012-12-09T10:54:11Z</time>
      </trkpt>
      <trkpt lat="44.56155" lon="0.90586">
        <ele>209.22</ele>
        <time>2012-12-09T10:54:37Z</time>
      </trkpt>
      <trkpt lat="44.56145" lon="0.90633">
        <ele>208.74</ele>
        <time>2012-12-09T10:54:49Z</time>
      </trkpt>
      <trkpt lat="44.56137" lon="0.90673">
        <ele>208.74</ele>
        <time>2012-12-09T10:54:56Z</time>
      </trkpt>
      <trkpt lat="44.56129" lon="0.90695">
        <ele>208.74</ele>
        <time>2012-12-09T10:55:00Z</time>
      </trkpt>
      <trkpt lat="44.56116" lon="0.90716">
        <ele>208.26</ele>
        <time>2012-12-09T10:55:04Z</time>
      </trkpt>
      <trkpt lat="44.56081" lon="0.90811">
        <ele>206.82</ele>
        <time>2012-12-09T10:55:20Z</time>
      </trkpt>
      <trkpt lat="44.56094" lon="0.90863">
        <ele>203.46</ele>
        <time>2012-12-09T10:55:28Z</time>
      </trkpt>
      <trkpt lat="44.56096" lon="0.90871">
        <ele>202.98</ele>
        <time>2012-12-09T10:55:29Z</time>
      </trkpt>
      <trkpt lat="44.5611" lon="0.90944">
        <ele>199.61</ele>
        <time>2012-12-09T10:55:37Z</time>
      </trkpt>
      <trkpt lat="44.56148" lon="0.91046">
        <ele>192.4</ele>
        <time>2012-12-09T10:55:46Z</time>
      </trkpt>
      <trkpt lat="44.56161" lon="0.91069">
        <ele>190.96</ele>
        <time>2012-12-09T10:55:48Z</time>
      </trkpt>
      <trkpt lat="44.56185" lon="0.91163">
        <ele>190.48</ele>
        <time>2012-12-09T10:55:56Z</time>
      </trkpt>
      <trkpt lat="44.56191" lon="0.91183">
        <ele>190.48</ele>
        <time>2012-12-09T10:55:58Z</time>
      </trkpt>
      <trkpt lat="44.56206" lon="0.91219">
        <ele>192.4</ele>
        <time>2012-12-09T10:56:03Z</time>
      </trkpt>
      <trkpt lat="44.56228" lon="0.91269">
        <ele>196.25</ele>
        <time>2012-12-09T10:56:14Z</time>
      </trkpt>
      <trkpt lat="44.5624" lon="0.91326">
        <ele>200.57</ele>
        <time>2012-12-09T10:56:28Z</time>
      </trkpt>
      <trkpt lat="44.56247" lon="0.91369">
        <ele>202.98</ele>
        <time>2012-12-09T10:56:42Z</time>
      </trkpt>
      <trkpt lat="44.56252" lon="0.91411">
        <ele>207.3</ele>
        <time>2012-12-09T10:56:57Z</time>
      </trkpt>
      <trkpt lat="44.56242" lon="0.91449">
        <ele>212.59</ele>
        <time>2012-12-09T10:57:11Z</time>
      </trkpt>
      <trkpt lat="44.56226" lon="0.91497">
        <ele>215.47</ele>
        <time>2012-12-09T10:57:26Z</time>
      </trkpt>
      <trkpt lat="44.56217" lon="0.91563">
        <ele>218.36</ele>
        <time>2012-12-09T10:57:42Z</time>
      </trkpt>
      <trkpt lat="44.56216" lon="0.91574">
        <ele>218.84</ele>
        <time>2012-12-09T10:57:45Z</time>
      </trkpt>
      <trkpt lat="44.56217" lon="0.9158">
        <ele>220.28</ele>
        <time>2012-12-09T10:57:58Z</time>
      </trkpt>
      <trkpt lat="44.56215" lon="0.91578">
        <ele>217.88</ele>
        <time>2012-12-09T10:58:24Z</time>
      </trkpt>
      <trkpt lat="44.56214" lon="0.9158">
        <ele>214.99</ele>
        <time>2012-12-09T10:58:51Z</time>
      </trkpt>
      <trkpt lat="44.56214" lon="0.91575">
        <ele>214.99</ele>
        <time>2012-12-09T10:59:15Z</time>
      </trkpt>
      <trkpt lat="44.56214" lon="0.91579">
        <ele>214.51</ele>
        <time>2012-12-09T10:59:38Z</time>
      </trkpt>
      <trkpt lat="44.5622" lon="0.91592">
        <ele>214.51</ele>
        <time>2012-12-09T10:59:43Z</time>
      </trkpt>
      <trkpt lat="44.5626" lon="0.91608">
        <ele>217.4</ele>
        <time>2012-12-09T10:59:58Z</time>
      </trkpt>
      <trkpt lat="44.56321" lon="0.91621">
        <ele>217.88</ele>
        <time>2012-12-09T11:00:15Z</time>
      </trkpt>
      <trkpt lat="44.56375" lon="0.9166">
        <ele>213.55</ele>
        <time>2012-12-09T11:00:26Z</time>
      </trkpt>
      <trkpt lat="44.56396" lon="0.91713">
        <ele>211.63</ele>
        <time>2012-12-09T11:00:33Z</time>
      </trkpt>
      <trkpt lat="44.56417" lon="0.91745">
        <ele>211.15</ele>
        <time>2012-12-09T11:00:38Z</time>
      </trkpt>
      <trkpt lat="44.56431" lon="0.91762">
        <ele>211.63</ele>
        <time>2012-12-09T11:00:42Z</time>
      </trkpt>
      <trkpt lat="44.56446" lon="0.91829">
        <ele>212.59</ele>
        <time>2012-12-09T11:00:54Z</time>
      </trkpt>
      <trkpt lat="44.56439" lon="0.91883">
        <ele>214.51</ele>
        <time>2012-12-09T11:01:05Z</time>
      </trkpt>
      <trkpt lat="44.56401" lon="0.91912">
        <ele>215.47</ele>
        <time>2012-12-09T11:01:20Z</time>
      </trkpt>
      <trkpt lat="44.56357" lon="0.91935">
        <ele>214.51</ele>
        <time>2012-12-09T11:01:32Z</time>
      </trkpt>
      <trkpt lat="44.56304" lon="0.91967">
        <ele>222.2</ele>
        <time>2012-12-09T11:01:46Z</time>
      </trkpt>
      <trkpt lat="44.563" lon="0.91969">
        <ele>223.16</ele>
        <time>2012-12-09T11:01:47Z</time>
      </trkpt>
      <trkpt lat="44.56265" lon="0.9198">
        <ele>227.97</ele>
        <time>2012-12-09T11:01:55Z</time>
      </trkpt>
      <trkpt lat="44.56196" lon="0.9199">
        <ele>231.81</ele>
        <time>2012-12-09T11:02:10Z</time>
      </trkpt>
      <trkpt lat="44.5616" lon="0.91997">
        <ele>232.3</ele>
        <time>2012-12-09T11:02:19Z</time>
      </trkpt>
      <trkpt lat="44.56136" lon="0.92005">
        <ele>231.33</ele>
        <time>2012-12-09T11:02:24Z</time>
      </trkpt>
      <trkpt lat="44.56085" lon="0.92031">
        <ele>226.05</ele>
        <time>2012-12-09T11:02:32Z</time>
      </trkpt>
      <trkpt lat="44.56065" lon="0.92072">
        <ele>221.72</ele>
        <time>2012-12-09T11:02:38Z</time>
      </trkpt>
      <trkpt lat="44.56061" lon="0.92102">
        <ele>219.32</ele>
        <time>2012-12-09T11:02:41Z</time>
      </trkpt>
      <trkpt lat="44.5606" lon="0.92122">
        <ele>217.4</ele>
        <time>2012-12-09T11:02:43Z</time>
      </trkpt>
      <trkpt lat="44.56052" lon="0.92156">
        <ele>213.55</ele>
        <time>2012-12-09T11:02:48Z</time>
      </trkpt>
      <trkpt lat="44.56042" lon="0.92186">
        <ele>211.63</ele>
        <time>2012-12-09T11:02:53Z</time>
      </trkpt>
      <trkpt lat="44.56021" lon="0.92232">
        <ele>210.67</ele>
        <time>2012-12-09T11:03:06Z</time>
      </trkpt>
      <trkpt lat="44.56012" lon="0.92279">
        <ele>212.59</ele>
        <time>2012-12-09T11:03:19Z</time>
      </trkpt>
      <trkpt lat="44.56003" lon="0.92342">
        <ele>212.59</ele>
        <time>2012-12-09T11:03:35Z</time>
      </trkpt>
      <trkpt lat="44.55999" lon="0.9237">
        <ele>214.03</ele>
        <time>2012-12-09T11:03:47Z</time>
      </trkpt>
      <trkpt lat="44.55998" lon="0.92371">
        <ele>214.03</ele>
        <time>2012-12-09T11:04:13Z</time>
      </trkpt>
      <trkpt lat="44.55999" lon="0.92373">
        <ele>215.47</ele>
        <time>2012-12-09T11:04:42Z</time>
      </trkpt>
      <trkpt lat="44.55998" lon="0.92373">
        <ele>214.99</ele>
        <time>2012-12-09T11:04:45Z</time>
      </trkpt>
      <trkpt lat="44.55978" lon="0.92414">
        <ele>214.99</ele>
        <time>2012-12-09T11:04:58Z</time>
      </trkpt>
      <trkpt lat="44.55949" lon="0.92473">
        <ele>215.47</ele>
        <time>2012-12-09T11:05:13Z</time>
      </trkpt>
      <trkpt lat="44.55933" lon="0.9253">
        <ele>212.59</ele>
        <time>2012-12-09T11:05:25Z</time>
      </trkpt>
      <trkpt lat="44.55916" lon="0.92601">
        <ele>212.11</ele>
        <time>2012-12-09T11:05:40Z</time>
      </trkpt>
      <trkpt lat="44.55895" lon="0.92671">
        <ele>212.11</ele>
        <time>2012-12-09T11:05:55Z</time>
      </trkpt>
      <trkpt lat="44.55887" lon="0.92687">
        <ele>211.63</ele>
        <time>2012-12-09T11:05:58Z</time>
      </trkpt>
      <trkpt lat="44.5588" lon="0.92697">
        <ele>211.63</ele>
        <time>2012-12-09T11:06:00Z</time>
      </trkpt>
      <trkpt lat="44.55866" lon="0.9272">
        <ele>211.15</ele>
        <time>2012-12-09T11:06:04Z</time>
      </trkpt>
      <trkpt lat="44.55824" lon="0.92788">
        <ele>207.78</ele>
        <time>2012-12-09T11:06:14Z</time>
      </trkpt>
      <trkpt lat="44.55813" lon="0.92815">
        <ele>205.86</ele>
        <time>2012-12-09T11:06:18Z</time>
      </trkpt>
      <trkpt lat="44.5581" lon="0.92893">
        <ele>202.98</ele>
        <time>2012-12-09T11:06:30Z</time>
      </trkpt>
      <trkpt lat="44.55809" lon="0.92923">
        <ele>203.94</ele>
        <time>2012-12-09T11:06:37Z</time>
      </trkpt>
      <trkpt lat="44.55805" lon="0.92956">
        <ele>206.34</ele>
        <time>2012-12-09T11:06:47Z</time>
      </trkpt>
      <trkpt lat="44.55805" lon="0.92965">
        <ele>207.78</ele>
        <time>2012-12-09T11:06:50Z</time>
      </trkpt>
      <trkpt lat="44.55802" lon="0.92977">
        <ele>209.7</ele>
        <time>2012-12-09T11:06:55Z</time>
      </trkpt>
      <trkpt lat="44.55793" lon="0.93018">
        <ele>213.07</ele>
        <time>2012-12-09T11:07:12Z</time>
      </trkpt>
      <trkpt lat="44.55788" lon="0.93033">
        <ele>214.03</ele>
        <time>2012-12-09T11:07:25Z</time>
      </trkpt>
      <trkpt lat="44.55788" lon="0.93036">
        <ele>213.55</ele>
        <time>2012-12-09T11:07:54Z</time>
      </trkpt>
      <trkpt lat="44.55786" lon="0.93036">
        <ele>215.95</ele>
        <time>2012-12-09T11:08:19Z</time>
      </trkpt>
      <trkpt lat="44.55786" lon="0.93037">
        <ele>215.95</ele>
        <time>2012-12-09T11:08:25Z</time>
      </trkpt>
      <trkpt lat="44.55787" lon="0.93075">
        <ele>215.47</ele>
        <time>2012-12-09T11:08:35Z</time>
      </trkpt>
      <trkpt lat="44.55771" lon="0.93114">
        <ele>213.07</ele>
        <time>2012-12-09T11:08:42Z</time>
      </trkpt>
      <trkpt lat="44.55765" lon="0.93126">
        <ele>212.59</ele>
        <time>2012-12-09T11:08:44Z</time>
      </trkpt>
      <trkpt lat="44.55752" lon="0.93156">
        <ele>209.7</ele>
        <time>2012-12-09T11:08:50Z</time>
      </trkpt>
      <trkpt lat="44.55743" lon="0.93177">
        <ele>207.78</ele>
        <time>2012-12-09T11:08:53Z</time>
      </trkpt>
      <trkpt lat="44.5573" lon="0.93232">
        <ele>203.46</ele>
        <time>2012-12-09T11:08:59Z</time>
      </trkpt>
      <trkpt lat="44.55727" lon="0.93262">
        <ele>202.49</ele>
        <time>2012-12-09T11:09:03Z</time>
      </trkpt>
      <trkpt lat="44.55727" lon="0.93281">
        <ele>203.46</ele>
        <time>2012-12-09T11:09:06Z</time>
      </trkpt>
      <trkpt lat="44.5574" lon="0.9333">
        <ele>204.9</ele>
        <time>2012-12-09T11:09:15Z</time>
      </trkpt>
      <trkpt lat="44.55731" lon="0.9337">
        <ele>208.74</ele>
        <time>2012-12-09T11:09:27Z</time>
      </trkpt>
      <trkpt lat="44.55726" lon="0.93383">
        <ele>210.19</ele>
        <time>2012-12-09T11:09:32Z</time>
      </trkpt>
      <trkpt lat="44.55713" lon="0.93416">
        <ele>213.55</ele>
        <time>2012-12-09T11:09:43Z</time>
      </trkpt>
      <trkpt lat="44.5571" lon="0.93421">
        <ele>214.03</ele>
        <time>2012-12-09T11:09:45Z</time>
      </trkpt>
      <trkpt lat="44.55704" lon="0.93435">
        <ele>214.51</ele>
        <time>2012-12-09T11:09:51Z</time>
      </trkpt>
      <trkpt lat="44.55697" lon="0.93446">
        <ele>214.03</ele>
        <time>2012-12-09T11:09:56Z</time>
      </trkpt>
      <trkpt lat="44.55685" lon="0.93472">
        <ele>214.99</ele>
        <time>2012-12-09T11:10:07Z</time>
      </trkpt>
      <trkpt lat="44.55675" lon="0.93498">
        <ele>216.43</ele>
        <time>2012-12-09T11:10:18Z</time>
      </trkpt>
      <trkpt lat="44.55671" lon="0.93505">
        <ele>214.99</ele>
        <time>2012-12-09T11:10:22Z</time>
      </trkpt>
      <trkpt lat="44.55668" lon="0.93516">
        <ele>214.51</ele>
        <time>2012-12-09T11:10:26Z</time>
      </trkpt>
      <trkpt lat="44.55653" lon="0.93554">
        <ele>209.7</ele>
        <time>2012-12-09T11:10:39Z</time>
      </trkpt>
      <trkpt lat="44.5563" lon="0.93591">
        <ele>203.46</ele>
        <time>2012-12-09T11:10:49Z</time>
      </trkpt>
      <trkpt lat="44.55622" lon="0.93602">
        <ele>200.57</ele>
        <time>2012-12-09T11:10:52Z</time>
      </trkpt>
      <trkpt lat="44.55605" lon="0.93607">
        <ele>197.21</ele>
        <time>2012-12-09T11:10:56Z</time>
      </trkpt>
      <trkpt lat="44.55585" lon="0.93617">
        <ele>193.84</ele>
        <time>2012-12-09T11:11:00Z</time>
      </trkpt>
      <trkpt lat="44.55573" lon="0.93629">
        <ele>192.4</ele>
        <time>2012-12-09T11:11:02Z</time>
      </trkpt>
      <trkpt lat="44.55552" lon="0.93656">
        <ele>188.08</ele>
        <time>2012-12-09T11:11:12Z</time>
      </trkpt>
      <trkpt lat="44.55537" lon="0.93701">
        <ele>189.52</ele>
        <time>2012-12-09T11:11:23Z</time>
      </trkpt>
      <trkpt lat="44.55526" lon="0.93754">
        <ele>193.36</ele>
        <time>2012-12-09T11:11:35Z</time>
      </trkpt>
      <trkpt lat="44.55522" lon="0.93761">
        <ele>192.4</ele>
        <time>2012-12-09T11:11:40Z</time>
      </trkpt>
      <trkpt lat="44.55501" lon="0.93796">
        <ele>191.44</ele>
        <time>2012-12-09T11:11:54Z</time>
      </trkpt>
      <trkpt lat="44.55446" lon="0.93866">
        <ele>188.08</ele>
        <time>2012-12-09T11:12:08Z</time>
      </trkpt>
      <trkpt lat="44.55425" lon="0.93897">
        <ele>186.63</ele>
        <time>2012-12-09T11:12:13Z</time>
      </trkpt>
      <trkpt lat="44.55371" lon="0.9395">
        <ele>181.83</ele>
        <time>2012-12-09T11:12:24Z</time>
      </trkpt>
      <trkpt lat="44.55332" lon="0.93976">
        <ele>178.94</ele>
        <time>2012-12-09T11:12:30Z</time>
      </trkpt>
      <trkpt lat="44.55302" lon="0.93961">
        <ele>176.06</ele>
        <time>2012-12-09T11:12:35Z</time>
      </trkpt>
      <trkpt lat="44.55289" lon="0.93933">
        <ele>173.66</ele>
        <time>2012-12-09T11:12:38Z</time>
      </trkpt>
      <trkpt lat="44.55256" lon="0.93909">
        <ele>171.25</ele>
        <time>2012-12-09T11:12:43Z</time>
      </trkpt>
      <trkpt lat="44.55209" lon="0.93913">
        <ele>171.25</ele>
        <time>2012-12-09T11:12:50Z</time>
      </trkpt>
      <trkpt lat="44.55197" lon="0.93918">
        <ele>171.25</ele>
        <time>2012-12-09T11:12:52Z</time>
      </trkpt>
      <trkpt lat="44.55167" lon="0.93922">
        <ele>172.21</ele>
        <time>2012-12-09T11:12:57Z</time>
      </trkpt>
      <trkpt lat="44.55066" lon="0.93884">
        <ele>171.25</ele>
        <time>2012-12-09T11:13:14Z</time>
      </trkpt>
      <trkpt lat="44.55054" lon="0.93878">
        <ele>171.25</ele>
        <time>2012-12-09T11:13:16Z</time>
      </trkpt>
      <trkpt lat="44.54956" lon="0.93842">
        <ele>168.37</ele>
        <time>2012-12-09T11:13:33Z</time>
      </trkpt>
      <trkpt lat="44.54941" lon="0.93838">
        <ele>167.89</ele>
        <time>2012-12-09T11:13:36Z</time>
      </trkpt>
      <trkpt lat="44.549" lon="0.93837">
        <ele>165</ele>
        <time>2012-12-09T11:13:47Z</time>
      </trkpt>
      <trkpt lat="44.549" lon="0.93842">
        <ele>165.96</ele>
        <time>2012-12-09T11:14:00Z</time>
      </trkpt>
      <trkpt lat="44.549" lon="0.93844">
        <ele>165.96</ele>
        <time>2012-12-09T11:14:13Z</time>
      </trkpt>
      <trkpt lat="44.54901" lon="0.93846">
        <ele>166.45</ele>
        <time>2012-12-09T11:14:28Z</time>
      </trkpt>
      <trkpt lat="44.549" lon="0.93847">
        <ele>166.45</ele>
        <time>2012-12-09T11:14:30Z</time>
      </trkpt>
      <trkpt lat="44.54899" lon="0.9386">
        <ele>166.93</ele>
        <time>2012-12-09T11:14:36Z</time>
      </trkpt>
      <trkpt lat="44.54906" lon="0.93876">
        <ele>167.41</ele>
        <time>2012-12-09T11:14:44Z</time>
      </trkpt>
      <trkpt lat="44.54906" lon="0.93881">
        <ele>166.93</ele>
        <time>2012-12-09T11:14:47Z</time>
      </trkpt>
      <trkpt lat="44.54898" lon="0.93906">
        <ele>165</ele>
        <time>2012-12-09T11:14:58Z</time>
      </trkpt>
      <trkpt lat="44.54886" lon="0.93925">
        <ele>163.08</ele>
        <time>2012-12-09T11:15:04Z</time>
      </trkpt>
      <trkpt lat="44.54881" lon="0.93925">
        <ele>162.12</ele>
        <time>2012-12-09T11:15:06Z</time>
      </trkpt>
      <trkpt lat="44.5487" lon="0.93939">
        <ele>157.31</ele>
        <time>2012-12-09T11:15:12Z</time>
      </trkpt>
      <trkpt lat="44.5486" lon="0.93946">
        <ele>153.47</ele>
        <time>2012-12-09T11:15:16Z</time>
      </trkpt>
      <trkpt lat="44.54853" lon="0.93949">
        <ele>153.95</ele>
        <time>2012-12-09T11:15:30Z</time>
      </trkpt>
      <trkpt lat="44.5485" lon="0.93952">
        <ele>156.83</ele>
        <time>2012-12-09T11:15:47Z</time>
      </trkpt>
      <trkpt lat="44.54847" lon="0.93957">
        <ele>156.35</ele>
        <time>2012-12-09T11:15:50Z</time>
      </trkpt>
      <trkpt lat="44.54851" lon="0.93966">
        <ele>154.43</ele>
        <time>2012-12-09T11:15:55Z</time>
      </trkpt>
      <trkpt lat="44.54855" lon="0.93972">
        <ele>152.51</ele>
        <time>2012-12-09T11:15:58Z</time>
      </trkpt>
      <trkpt lat="44.54852" lon="0.93985">
        <ele>148.66</ele>
        <time>2012-12-09T11:16:03Z</time>
      </trkpt>
      <trkpt lat="44.5484" lon="0.94009">
        <ele>146.26</ele>
        <time>2012-12-09T11:16:10Z</time>
      </trkpt>
      <trkpt lat="44.54838" lon="0.94024">
        <ele>144.82</ele>
        <time>2012-12-09T11:16:13Z</time>
      </trkpt>
      <trkpt lat="44.54821" lon="0.94043">
        <ele>142.41</ele>
        <time>2012-12-09T11:16:19Z</time>
      </trkpt>
      <trkpt lat="44.54805" lon="0.94055">
        <ele>141.45</ele>
        <time>2012-12-09T11:16:26Z</time>
      </trkpt>
      <trkpt lat="44.5481" lon="0.94064">
        <ele>141.45</ele>
        <time>2012-12-09T11:16:32Z</time>
      </trkpt>
      <trkpt lat="44.54836" lon="0.94081">
        <ele>142.41</ele>
        <time>2012-12-09T11:16:46Z</time>
      </trkpt>
      <trkpt lat="44.54849" lon="0.94115">
        <ele>146.26</ele>
        <time>2012-12-09T11:17:00Z</time>
      </trkpt>
      <trkpt lat="44.54834" lon="0.94158">
        <ele>150.58</ele>
        <time>2012-12-09T11:17:13Z</time>
      </trkpt>
      <trkpt lat="44.54844" lon="0.94179">
        <ele>153.95</ele>
        <time>2012-12-09T11:17:23Z</time>
      </trkpt>
      <trkpt lat="44.54869" lon="0.94196">
        <ele>158.27</ele>
        <time>2012-12-09T11:17:37Z</time>
      </trkpt>
      <trkpt lat="44.5487" lon="0.94206">
        <ele>158.75</ele>
        <time>2012-12-09T11:17:42Z</time>
      </trkpt>
      <trkpt lat="44.54867" lon="0.94213">
        <ele>158.75</ele>
        <time>2012-12-09T11:17:46Z</time>
      </trkpt>
      <trkpt lat="44.54855" lon="0.94236">
        <ele>156.83</ele>
        <time>2012-12-09T11:17:53Z</time>
      </trkpt>
      <trkpt lat="44.54826" lon="0.94273">
        <ele>150.58</ele>
        <time>2012-12-09T11:18:02Z</time>
      </trkpt>
      <trkpt lat="44.54815" lon="0.94288">
        <ele>149.14</ele>
        <time>2012-12-09T11:18:05Z</time>
      </trkpt>
      <trkpt lat="44.54796" lon="0.94318">
        <ele>145.78</ele>
        <time>2012-12-09T11:18:11Z</time>
      </trkpt>
      <trkpt lat="44.54776" lon="0.94356">
        <ele>138.57</ele>
        <time>2012-12-09T11:18:18Z</time>
      </trkpt>
      <trkpt lat="44.5476" lon="0.94395">
        <ele>128.95</ele>
        <time>2012-12-09T11:18:28Z</time>
      </trkpt>
      <trkpt lat="44.54748" lon="0.94423">
        <ele>127.99</ele>
        <time>2012-12-09T11:18:46Z</time>
      </trkpt>
      <trkpt lat="44.54743" lon="0.94431">
        <ele>127.51</ele>
        <time>2012-12-09T11:18:48Z</time>
      </trkpt>
      <trkpt lat="44.54715" lon="0.94479">
        <ele>123.67</ele>
        <time>2012-12-09T11:18:57Z</time>
      </trkpt>
      <trkpt lat="44.54708" lon="0.945">
        <ele>119.82</ele>
        <time>2012-12-09T11:19:01Z</time>
      </trkpt>
      <trkpt lat="44.54696" lon="0.94521">
        <ele>116.46</ele>
        <time>2012-12-09T11:19:04Z</time>
      </trkpt>
      <trkpt lat="44.54684" lon="0.94553">
        <ele>113.09</ele>
        <time>2012-12-09T11:19:08Z</time>
      </trkpt>
      <trkpt lat="44.54668" lon="0.94587">
        <ele>111.65</ele>
        <time>2012-12-09T11:19:12Z</time>
      </trkpt>
      <trkpt lat="44.54625" lon="0.94662">
        <ele>105.88</ele>
        <time>2012-12-09T11:19:22Z</time>
      </trkpt>
      <trkpt lat="44.54585" lon="0.94744">
        <ele>100.11</ele>
        <time>2012-12-09T11:19:33Z</time>
      </trkpt>
      <trkpt lat="44.54541" lon="0.94853">
        <ele>91.94</ele>
        <time>2012-12-09T11:19:46Z</time>
      </trkpt>
      <trkpt lat="44.54525" lon="0.94869">
        <ele>90.5</ele>
        <time>2012-12-09T11:19:54Z</time>
      </trkpt>
    </trkseg>
  </trk>
</gpx>